Time,TemperatureF,DewpointF,PressureIn,WindDirection,WindDirectionDegrees,WindSpeedMPH,WindSpeedGustMPH,Humidity,HourlyPrecipIn,Conditions,Clouds,dailyrainin,SoftwareType,DateUTC
2013-02-07 00:01:00,45.0,38.8,17.72,South,191,2.7,2.7,79,0.08,,---,0.04,VWS V14.00,2013-02-07 08:01:00,
2013-02-07 00:02:00,45.1,39.7,17.72,West,274,8.1,8.1,81,0.08,,---,0.04,VWS V14.00,2013-02-07 08:02:00,
2013-02-07 00:03:00,45.1,40.3,17.72,SW,229,8.7,10.1,83,0.08,,---,0.04,VWS V14.00,2013-02-07 08:03:00,
2013-02-07 00:06:00,45.3,41.4,17.72,SW,229,5.4,10.1,86,0.12,,---,0.08,VWS V14.00,2013-02-07 08:06:00,
2013-02-07 00:07:00,45.3,41.4,17.72,SW,233,2.7,4.0,86,0.12,,---,0.08,VWS V14.00,2013-02-07 08:07:00,
2013-02-07 00:08:00,45.1,41.2,17.72,South,189,4.9,4.9,86,0.12,,---,0.08,VWS V14.00,2013-02-07 08:08:00,
2013-02-07 00:11:00,45.1,41.5,17.72,SW,221,0.0,3.1,87,0.12,,---,0.08,VWS V14.00,2013-02-07 08:11:00,
2013-02-07 00:12:00,45.1,41.5,17.72,SW,222,5.4,5.4,87,0.12,,---,0.08,VWS V14.00,2013-02-07 08:12:00,
2013-02-07 00:13:00,45.3,41.7,17.72,SSW,198,4.0,5.4,87,0.12,,---,0.08,VWS V14.00,2013-02-07 08:13:00,
2013-02-07 00:16:00,45.5,42.2,17.72,WSW,238,9.6,9.6,88,0.12,,---,0.08,VWS V14.00,2013-02-07 08:16:00,
2013-02-07 00:17:00,45.5,42.5,17.72,WSW,244,6.3,6.3,89,0.12,,---,0.08,VWS V14.00,2013-02-07 08:17:00,
2013-02-07 00:18:00,45.5,42.5,17.72,SW,223,3.1,7.6,89,0.12,,---,0.08,VWS V14.00,2013-02-07 08:18:00,
2013-02-07 00:21:00,45.5,42.7,17.72,WSW,245,3.1,3.6,90,0.16,,---,0.12,VWS V14.00,2013-02-07 08:21:00,
2013-02-07 00:22:00,45.5,42.7,17.72,SW,222,4.9,4.9,90,0.16,,---,0.12,VWS V14.00,2013-02-07 08:22:00,
2013-02-07 00:23:00,45.5,42.7,17.72,SW,227,3.6,4.9,90,0.16,,---,0.12,VWS V14.00,2013-02-07 08:23:00,
2013-02-07 00:26:00,45.3,42.8,17.72,SSW,194,2.7,2.7,91,0.16,,---,0.12,VWS V14.00,2013-02-07 08:26:00,
2013-02-07 00:27:00,45.3,42.8,17.72,WSW,239,3.6,5.4,91,0.16,,---,0.12,VWS V14.00,2013-02-07 08:27:00,
2013-02-07 00:28:00,45.3,42.8,17.72,SSW,194,3.1,3.6,91,0.16,,---,0.12,VWS V14.00,2013-02-07 08:28:00,
2013-02-07 00:31:00,45.3,42.8,17.72,South,186,3.6,6.3,91,0.16,,---,0.12,VWS V14.00,2013-02-07 08:31:00,
2013-02-07 00:32:00,45.3,43.1,17.72,SW,218,3.6,3.6,92,0.16,,---,0.12,VWS V14.00,2013-02-07 08:32:00,
2013-02-07 00:33:00,45.3,43.1,17.72,SSW,197,2.7,4.0,92,0.16,,---,0.12,VWS V14.00,2013-02-07 08:33:00,
2013-02-07 00:36:00,45.1,43.0,17.72,SSW,195,3.6,3.6,92,0.16,,---,0.12,VWS V14.00,2013-02-07 08:36:00,
2013-02-07 00:37:00,45.1,43.0,17.72,WSW,252,3.6,6.3,92,0.16,,---,0.12,VWS V14.00,2013-02-07 08:37:00,
2013-02-07 00:38:00,45.1,43.0,17.72,WSW,241,3.6,6.3,92,0.16,,---,0.12,VWS V14.00,2013-02-07 08:38:00,
2013-02-07 00:41:00,45.1,43.0,17.72,WSW,244,4.0,4.0,92,0.20,,---,0.16,VWS V14.00,2013-02-07 08:41:00,
2013-02-07 00:42:00,45.1,43.0,17.72,SSW,195,2.7,2.7,92,0.20,,---,0.16,VWS V14.00,2013-02-07 08:42:00,
2013-02-07 00:43:00,45.3,43.4,17.72,SSW,208,2.7,4.9,93,0.20,,---,0.16,VWS V14.00,2013-02-07 08:43:00,
2013-02-07 00:46:00,45.3,43.4,17.72,SSW,196,0.0,0.0,93,0.20,,---,0.16,VWS V14.00,2013-02-07 08:46:00,
2013-02-07 00:47:00,45.3,43.4,17.72,SSW,196,0.0,0.0,93,0.20,,---,0.16,VWS V14.00,2013-02-07 08:47:00,
2013-02-07 00:48:00,45.3,43.4,17.72,SSW,196,0.0,0.0,93,0.20,,---,0.16,VWS V14.00,2013-02-07 08:48:00,
2013-02-07 00:51:00,45.3,43.4,17.72,SSW,195,0.0,0.0,93,0.20,,---,0.16,VWS V14.00,2013-02-07 08:51:00,
2013-02-07 00:52:00,45.3,43.4,17.72,SSW,210,0.0,0.0,93,0.20,,---,0.16,VWS V14.00,2013-02-07 08:52:00,
2013-02-07 00:53:00,45.3,43.4,17.72,SW,228,2.2,2.2,93,0.20,,---,0.16,VWS V14.00,2013-02-07 08:53:00,
2013-02-07 00:56:00,45.3,43.4,17.72,SW,235,2.7,2.7,93,0.16,,---,0.16,VWS V14.00,2013-02-07 08:56:00,
2013-02-07 00:57:00,45.3,43.4,17.72,SW,235,2.7,2.7,93,0.16,,---,0.16,VWS V14.00,2013-02-07 08:57:00,
2013-02-07 00:58:00,45.3,43.4,17.72,SW,228,2.7,3.1,93,0.16,,---,0.16,VWS V14.00,2013-02-07 08:58:00,
2013-02-07 01:01:00,45.3,43.4,17.72,WSW,254,0.0,0.0,93,0.16,,---,0.20,VWS V14.00,2013-02-07 09:01:00,
2013-02-07 01:02:00,45.3,43.4,17.72,SSW,194,3.1,3.1,93,0.16,,---,0.20,VWS V14.00,2013-02-07 09:02:00,
2013-02-07 01:03:00,45.5,43.6,17.72,WSW,258,2.7,4.0,93,0.16,,---,0.20,VWS V14.00,2013-02-07 09:03:00,
2013-02-07 01:06:00,45.5,43.9,17.72,WSW,244,2.7,2.7,94,0.12,,---,0.20,VWS V14.00,2013-02-07 09:06:00,
2013-02-07 01:07:00,45.5,43.9,17.72,WSW,244,0.0,2.7,94,0.12,,---,0.20,VWS V14.00,2013-02-07 09:07:00,
2013-02-07 01:08:00,45.5,43.9,17.72,WSW,244,0.0,0.0,94,0.12,,---,0.20,VWS V14.00,2013-02-07 09:08:00,
2013-02-07 01:11:00,45.5,43.9,17.72,WSW,249,0.0,0.0,94,0.12,,---,0.20,VWS V14.00,2013-02-07 09:11:00,
2013-02-07 01:12:00,45.5,43.9,17.72,WSW,249,0.0,0.0,94,0.12,,---,0.20,VWS V14.00,2013-02-07 09:12:00,
2013-02-07 01:13:00,45.5,43.9,17.72,WSW,249,0.0,0.0,94,0.12,,---,0.20,VWS V14.00,2013-02-07 09:13:00,
2013-02-07 01:16:00,45.5,43.9,17.72,WSW,249,0.0,0.0,94,0.12,,---,0.20,VWS V14.00,2013-02-07 09:16:00,
2013-02-07 01:17:00,45.5,43.9,17.72,WSW,249,0.0,0.0,94,0.16,,---,0.24,VWS V14.00,2013-02-07 09:17:00,
2013-02-07 01:18:00,45.5,43.9,17.72,WSW,249,0.0,0.0,94,0.16,,---,0.24,VWS V14.00,2013-02-07 09:18:00,
2013-02-07 01:21:00,45.5,43.9,17.72,WSW,249,0.0,0.0,94,0.12,,---,0.24,VWS V14.00,2013-02-07 09:21:00,
2013-02-07 01:22:00,45.5,43.9,17.72,WSW,249,0.0,0.0,94,0.12,,---,0.24,VWS V14.00,2013-02-07 09:22:00,
2013-02-07 01:24:00,45.5,43.9,17.72,WSW,249,0.0,0.0,94,0.12,,---,0.24,VWS V14.00,2013-02-07 09:24:00,
2013-02-07 01:26:00,45.5,43.9,17.72,WSW,249,0.0,0.0,94,0.12,,---,0.24,VWS V14.00,2013-02-07 09:26:00,
2013-02-07 01:27:00,45.5,43.9,17.72,WSW,249,0.0,0.0,94,0.12,,---,0.24,VWS V14.00,2013-02-07 09:27:00,
2013-02-07 01:29:00,45.5,43.9,17.72,WSW,249,0.0,0.0,94,0.12,,---,0.24,VWS V14.00,2013-02-07 09:29:00,
2013-02-07 01:31:00,45.3,43.7,17.72,WSW,249,0.0,0.0,94,0.12,,---,0.24,VWS V14.00,2013-02-07 09:31:00,
2013-02-07 01:32:00,45.3,43.7,17.72,WSW,249,0.0,0.0,94,0.12,,---,0.24,VWS V14.00,2013-02-07 09:32:00,
2013-02-07 01:34:00,45.3,43.7,17.72,WSW,249,0.0,0.0,94,0.12,,---,0.24,VWS V14.00,2013-02-07 09:34:00,
2013-02-07 01:36:00,45.3,43.7,17.72,WSW,249,0.0,0.0,94,0.12,,---,0.24,VWS V14.00,2013-02-07 09:36:00,
2013-02-07 01:37:00,45.3,43.7,17.72,WSW,249,0.0,0.0,94,0.12,,---,0.24,VWS V14.00,2013-02-07 09:37:00,
2013-02-07 01:39:00,45.3,43.7,17.72,WSW,249,0.0,0.0,94,0.12,,---,0.24,VWS V14.00,2013-02-07 09:39:00,
2013-02-07 01:41:00,45.3,43.7,17.72,WSW,249,0.0,0.0,94,0.08,,---,0.24,VWS V14.00,2013-02-07 09:41:00,
2013-02-07 01:42:00,45.3,43.7,17.72,WSW,249,0.0,0.0,94,0.08,,---,0.24,VWS V14.00,2013-02-07 09:42:00,
2013-02-07 01:43:00,45.3,43.7,17.72,WSW,249,0.0,0.0,94,0.08,,---,0.24,VWS V14.00,2013-02-07 09:43:00,
2013-02-07 01:44:00,45.3,43.7,17.72,WSW,249,0.0,0.0,94,0.08,,---,0.24,VWS V14.00,2013-02-07 09:44:00,
2013-02-07 01:47:00,45.3,43.7,17.72,WSW,249,0.0,0.0,94,0.08,,---,0.24,VWS V14.00,2013-02-07 09:47:00,
2013-02-07 01:48:00,45.3,43.7,17.72,WSW,249,0.0,0.0,94,0.08,,---,0.24,VWS V14.00,2013-02-07 09:48:00,
2013-02-07 01:49:00,45.3,43.7,17.72,WSW,249,0.0,0.0,94,0.08,,---,0.24,VWS V14.00,2013-02-07 09:49:00,
2013-02-07 01:52:00,45.3,43.7,17.72,WSW,249,0.0,0.0,94,0.08,,---,0.24,VWS V14.00,2013-02-07 09:52:00,
2013-02-07 01:53:00,45.3,43.7,17.72,WSW,249,0.0,0.0,94,0.08,,---,0.24,VWS V14.00,2013-02-07 09:53:00,
2013-02-07 01:54:00,45.3,43.7,17.72,WSW,249,0.0,0.0,94,0.08,,---,0.24,VWS V14.00,2013-02-07 09:54:00,
2013-02-07 01:57:00,45.3,43.7,17.72,WSW,249,0.0,0.0,94,0.08,,---,0.24,VWS V14.00,2013-02-07 09:57:00,
2013-02-07 01:58:00,45.3,43.7,17.72,WSW,249,0.0,0.0,94,0.08,,---,0.24,VWS V14.00,2013-02-07 09:58:00,
2013-02-07 01:59:00,45.3,43.7,17.72,WSW,249,0.0,0.0,94,0.08,,---,0.24,VWS V14.00,2013-02-07 09:59:00,
2013-02-07 02:02:00,45.3,43.7,17.72,WSW,249,0.0,0.0,94,0.04,,---,0.24,VWS V14.00,2013-02-07 10:02:00,
2013-02-07 02:03:00,45.3,43.7,17.72,WSW,249,0.0,0.0,94,0.04,,---,0.24,VWS V14.00,2013-02-07 10:03:00,
2013-02-07 02:04:00,45.3,43.7,17.72,WSW,249,0.0,0.0,94,0.04,,---,0.24,VWS V14.00,2013-02-07 10:04:00,
2013-02-07 02:07:00,45.3,43.7,17.72,WSW,249,0.0,0.0,94,0.04,,---,0.24,VWS V14.00,2013-02-07 10:07:00,
2013-02-07 02:08:00,45.3,43.7,17.72,WSW,249,0.0,0.0,94,0.04,,---,0.24,VWS V14.00,2013-02-07 10:08:00,
2013-02-07 02:09:00,45.3,43.7,17.72,WSW,249,0.0,0.0,94,0.04,,---,0.24,VWS V14.00,2013-02-07 10:09:00,
2013-02-07 02:12:00,45.3,44.0,17.72,ENE,74,3.6,4.9,95,0.08,,---,0.28,VWS V14.00,2013-02-07 10:12:00,
2013-02-07 02:13:00,45.3,44.0,17.72,East,83,4.9,4.9,95,0.08,,---,0.28,VWS V14.00,2013-02-07 10:13:00,
2013-02-07 02:14:00,45.3,44.0,17.72,ENE,60,3.1,4.0,95,0.08,,---,0.28,VWS V14.00,2013-02-07 10:14:00,
2013-02-07 02:17:00,45.3,44.0,17.72,ENE,74,2.7,3.1,95,0.08,,---,0.28,VWS V14.00,2013-02-07 10:17:00,
2013-02-07 02:18:00,45.3,44.0,17.72,ENE,59,4.0,4.0,95,0.04,,---,0.28,VWS V14.00,2013-02-07 10:18:00,
2013-02-07 02:19:00,45.3,44.0,17.72,NE,47,3.6,3.6,95,0.04,,---,0.28,VWS V14.00,2013-02-07 10:19:00,
2013-02-07 02:22:00,45.3,44.0,17.72,East,98,2.7,4.9,95,0.04,,---,0.28,VWS V14.00,2013-02-07 10:22:00,
2013-02-07 02:23:00,45.3,44.0,17.72,ENE,72,2.7,3.6,95,0.04,,---,0.28,VWS V14.00,2013-02-07 10:23:00,
2013-02-07 02:24:00,45.1,43.8,17.72,East,89,4.0,4.0,95,0.04,,---,0.28,VWS V14.00,2013-02-07 10:24:00,
2013-02-07 02:27:00,45.1,43.8,17.72,ENE,75,2.7,5.4,95,0.04,,---,0.28,VWS V14.00,2013-02-07 10:27:00,
2013-02-07 02:28:00,45.0,43.6,17.72,East,88,3.1,3.1,95,0.04,,---,0.28,VWS V14.00,2013-02-07 10:28:00,
2013-02-07 02:29:00,45.0,43.6,17.72,East,96,3.6,3.6,95,0.04,,---,0.28,VWS V14.00,2013-02-07 10:29:00,
2013-02-07 02:32:00,44.8,43.4,17.72,ENE,58,2.2,4.9,95,0.04,,---,0.28,VWS V14.00,2013-02-07 10:32:00,
2013-02-07 02:33:00,44.8,43.4,17.72,ENE,57,3.1,3.6,95,0.04,,---,0.28,VWS V14.00,2013-02-07 10:33:00,
2013-02-07 02:34:00,44.8,43.4,17.72,ENE,72,2.2,2.7,95,0.04,,---,0.28,VWS V14.00,2013-02-07 10:34:00,
2013-02-07 02:37:00,44.6,43.3,17.72,East,93,2.2,4.0,95,0.04,,---,0.28,VWS V14.00,2013-02-07 10:37:00,
2013-02-07 02:38:00,44.6,43.3,17.72,ESE,120,3.6,4.9,95,0.04,,---,0.28,VWS V14.00,2013-02-07 10:38:00,
2013-02-07 02:39:00,44.6,43.3,17.72,East,95,5.8,5.8,95,0.04,,---,0.28,VWS V14.00,2013-02-07 10:39:00,
2013-02-07 02:42:00,44.4,43.3,17.72,East,98,3.1,3.1,96,0.04,,---,0.28,VWS V14.00,2013-02-07 10:42:00,
2013-02-07 02:43:00,44.4,43.3,17.72,ENE,63,2.2,3.6,96,0.04,,---,0.28,VWS V14.00,2013-02-07 10:43:00,
2013-02-07 02:45:00,44.4,43.3,17.72,ENE,64,2.7,3.6,96,0.04,,---,0.28,VWS V14.00,2013-02-07 10:45:00,
2013-02-07 02:47:00,44.2,43.2,17.72,ENE,59,2.7,4.0,96,0.04,,---,0.28,VWS V14.00,2013-02-07 10:47:00,
2013-02-07 02:48:00,44.2,43.2,17.72,East,79,4.9,4.9,96,0.04,,---,0.28,VWS V14.00,2013-02-07 10:48:00,
2013-02-07 02:50:00,44.2,43.2,17.72,East,88,2.2,3.6,96,0.04,,---,0.28,VWS V14.00,2013-02-07 10:50:00,
2013-02-07 02:52:00,44.1,43.0,17.72,ENE,65,4.0,4.0,96,0.04,,---,0.28,VWS V14.00,2013-02-07 10:52:00,
2013-02-07 02:53:00,44.1,43.0,17.72,East,87,3.6,5.4,96,0.04,,---,0.28,VWS V14.00,2013-02-07 10:53:00,
2013-02-07 02:55:00,44.1,43.0,17.72,ENE,60,3.1,3.6,96,0.04,,---,0.28,VWS V14.00,2013-02-07 10:55:00,
2013-02-07 02:57:00,44.1,43.0,17.72,East,97,3.6,3.6,96,0.04,,---,0.28,VWS V14.00,2013-02-07 10:57:00,
2013-02-07 02:58:00,44.1,43.0,17.72,East,80,3.1,3.6,96,0.04,,---,0.28,VWS V14.00,2013-02-07 10:58:00,
2013-02-07 03:00:00,43.9,42.8,17.72,NE,48,3.1,3.1,96,0.04,,---,0.28,VWS V14.00,2013-02-07 11:00:00,
2013-02-07 03:02:00,43.9,42.8,17.72,ENE,58,2.7,3.1,96,0.04,,---,0.28,VWS V14.00,2013-02-07 11:02:00,
2013-02-07 03:03:00,43.9,42.8,17.72,NE,38,2.7,2.7,96,0.04,,---,0.28,VWS V14.00,2013-02-07 11:03:00,
2013-02-07 03:05:00,43.7,42.6,17.72,NE,54,2.2,2.7,96,0.04,,---,0.28,VWS V14.00,2013-02-07 11:05:00,
2013-02-07 03:07:00,43.7,42.6,17.72,ENE,76,0.0,2.7,96,0.04,,---,0.28,VWS V14.00,2013-02-07 11:07:00,
2013-02-07 03:08:00,43.7,42.6,17.72,East,92,2.7,2.7,96,0.04,,---,0.28,VWS V14.00,2013-02-07 11:08:00,
2013-02-07 03:10:00,43.7,42.6,17.72,East,93,3.6,3.6,96,0.04,,---,0.28,VWS V14.00,2013-02-07 11:10:00,
2013-02-07 03:12:00,43.7,42.6,17.72,ESE,121,4.0,4.0,96,0.00,,---,0.28,VWS V14.00,2013-02-07 11:12:00,
2013-02-07 03:13:00,43.7,42.6,17.72,ESE,113,4.9,4.9,96,0.00,,---,0.28,VWS V14.00,2013-02-07 11:13:00,
2013-02-07 03:15:00,43.7,42.6,17.72,ESE,120,4.9,5.4,96,0.00,,---,0.28,VWS V14.00,2013-02-07 11:15:00,
2013-02-07 03:17:00,43.5,42.5,17.72,East,93,3.1,4.9,96,0.00,,---,0.28,VWS V14.00,2013-02-07 11:17:00,
2013-02-07 03:18:00,43.5,42.5,17.72,East,92,4.0,5.8,96,0.00,,---,0.28,VWS V14.00,2013-02-07 11:18:00,
2013-02-07 03:20:00,43.3,42.3,17.72,ESE,111,2.7,2.7,96,0.00,,---,0.28,VWS V14.00,2013-02-07 11:20:00,
2013-02-07 03:22:00,43.3,42.3,17.72,East,92,0.0,0.0,96,0.00,,---,0.28,VWS V14.00,2013-02-07 11:22:00,
2013-02-07 03:23:00,43.2,42.1,17.72,East,100,0.0,0.0,96,0.00,,---,0.28,VWS V14.00,2013-02-07 11:23:00,
2013-02-07 03:25:00,43.0,41.9,17.72,ESE,121,2.7,3.1,96,0.00,,---,0.28,VWS V14.00,2013-02-07 11:25:00,
2013-02-07 03:27:00,43.0,41.9,17.72,East,98,0.0,0.0,96,0.00,,---,0.28,VWS V14.00,2013-02-07 11:27:00,
2013-02-07 03:28:00,43.0,41.9,17.72,ESE,115,3.1,4.0,96,0.00,,---,0.28,VWS V14.00,2013-02-07 11:28:00,
2013-02-07 03:30:00,42.8,41.7,17.72,ESE,102,4.0,4.0,96,0.00,,---,0.28,VWS V14.00,2013-02-07 11:30:00,
2013-02-07 03:32:00,42.8,41.5,17.72,ESE,106,2.7,3.1,95,0.00,,---,0.28,VWS V14.00,2013-02-07 11:32:00,
2013-02-07 03:33:00,42.8,41.5,17.72,SE,136,0.0,2.7,95,0.00,,---,0.28,VWS V14.00,2013-02-07 11:33:00,
2013-02-07 03:35:00,42.6,41.6,17.72,ESE,106,2.7,3.6,96,0.00,,---,0.28,VWS V14.00,2013-02-07 11:35:00,
2013-02-07 03:37:00,42.6,41.6,17.72,East,90,4.0,5.4,96,0.00,,---,0.28,VWS V14.00,2013-02-07 11:37:00,
2013-02-07 03:38:00,42.4,41.4,17.72,East,99,3.6,4.0,96,0.00,,---,0.28,VWS V14.00,2013-02-07 11:38:00,
2013-02-07 03:40:00,42.4,41.4,17.72,ESE,109,4.0,4.0,96,0.00,,---,0.28,VWS V14.00,2013-02-07 11:40:00,
2013-02-07 03:42:00,42.4,41.4,17.72,East,86,4.9,5.4,96,0.00,,---,0.28,VWS V14.00,2013-02-07 11:42:00,
2013-02-07 03:43:00,42.3,41.2,17.72,ESE,112,4.0,4.9,96,0.00,,---,0.28,VWS V14.00,2013-02-07 11:43:00,
2013-02-07 03:45:00,42.3,41.2,17.72,East,92,3.6,4.0,96,0.00,,---,0.28,VWS V14.00,2013-02-07 11:45:00,
2013-02-07 03:47:00,42.3,41.2,17.72,ESE,115,5.8,5.8,96,0.00,,---,0.28,VWS V14.00,2013-02-07 11:47:00,
2013-02-07 03:48:00,42.3,41.2,17.72,East,101,3.6,5.8,96,0.00,,---,0.28,VWS V14.00,2013-02-07 11:48:00,
2013-02-07 03:50:00,42.3,41.2,17.72,ESE,113,3.6,5.4,96,0.00,,---,0.28,VWS V14.00,2013-02-07 11:50:00,
2013-02-07 03:52:00,42.4,41.4,17.72,East,91,2.7,3.1,96,0.00,,---,0.28,VWS V14.00,2013-02-07 11:52:00,
2013-02-07 03:53:00,42.4,41.4,17.72,ESE,114,3.6,4.0,96,0.00,,---,0.28,VWS V14.00,2013-02-07 11:53:00,
2013-02-07 03:55:00,42.4,41.4,17.72,SE,124,3.1,3.1,96,0.00,,---,0.28,VWS V14.00,2013-02-07 11:55:00,
2013-02-07 03:57:00,42.4,41.4,17.72,East,94,2.7,4.9,96,0.00,,---,0.28,VWS V14.00,2013-02-07 11:57:00,
2013-02-07 03:58:00,42.3,41.2,17.72,East,101,3.1,4.9,96,0.00,,---,0.28,VWS V14.00,2013-02-07 11:58:00,
2013-02-07 04:00:00,42.3,41.5,17.72,ESE,105,3.6,4.0,97,0.00,,---,0.28,VWS V14.00,2013-02-07 12:00:00,
2013-02-07 04:02:00,42.3,41.5,17.72,East,98,3.6,4.9,97,0.00,,---,0.28,VWS V14.00,2013-02-07 12:02:00,
2013-02-07 04:03:00,42.3,41.5,17.72,East,99,4.9,4.9,97,0.00,,---,0.28,VWS V14.00,2013-02-07 12:03:00,
2013-02-07 04:05:00,42.1,41.3,17.72,ESE,114,3.6,4.0,97,0.00,,---,0.28,VWS V14.00,2013-02-07 12:05:00,
2013-02-07 04:07:00,42.1,41.3,17.72,East,101,2.7,4.0,97,0.00,,---,0.28,VWS V14.00,2013-02-07 12:07:00,
2013-02-07 04:08:00,42.1,41.3,17.72,ESE,104,3.6,5.8,97,0.00,,---,0.28,VWS V14.00,2013-02-07 12:08:00,
2013-02-07 04:10:00,42.1,41.3,17.72,SE,124,2.7,2.7,97,0.00,,---,0.28,VWS V14.00,2013-02-07 12:10:00,
2013-02-07 04:13:00,42.1,41.3,17.72,ESE,112,0.0,3.6,97,0.00,,---,0.28,VWS V14.00,2013-02-07 12:13:00,
2013-02-07 04:15:00,42.3,41.5,17.72,East,100,3.6,4.9,97,0.00,,---,0.28,VWS V14.00,2013-02-07 12:15:00,
2013-02-07 04:18:00,42.3,41.5,17.72,East,99,0.0,0.0,97,0.00,,---,0.28,VWS V14.00,2013-02-07 12:18:00,
2013-02-07 04:21:00,42.3,41.5,17.72,NNW,332,3.6,3.6,97,0.00,,---,0.28,VWS V14.00,2013-02-07 12:21:00,
2013-02-07 04:23:00,42.3,41.5,17.72,NW,308,3.6,5.4,97,0.00,,---,0.28,VWS V14.00,2013-02-07 12:23:00,
2013-02-07 04:26:00,42.1,41.3,17.72,NNW,342,0.0,3.1,97,0.00,,---,0.28,VWS V14.00,2013-02-07 12:26:00,
2013-02-07 04:28:00,42.1,41.3,17.72,NNW,342,0.0,0.0,97,0.00,,---,0.28,VWS V14.00,2013-02-07 12:28:00,
2013-02-07 04:31:00,42.1,41.3,17.72,NNE,21,0.0,0.0,97,0.00,,---,0.28,VWS V14.00,2013-02-07 12:31:00,
2013-02-07 04:33:00,41.7,40.9,17.72,NNE,21,0.0,0.0,97,0.00,,---,0.28,VWS V14.00,2013-02-07 12:33:00,
2013-02-07 04:36:00,41.7,40.9,17.72,NE,52,0.0,0.0,97,0.00,,---,0.28,VWS V14.00,2013-02-07 12:36:00,
2013-02-07 04:38:00,41.5,40.8,17.72,NE,52,0.0,0.0,97,0.00,,---,0.28,VWS V14.00,2013-02-07 12:38:00,
2013-02-07 04:41:00,41.4,40.6,17.72,NE,52,0.0,0.0,97,0.00,,---,0.28,VWS V14.00,2013-02-07 12:41:00,
2013-02-07 04:43:00,41.2,40.4,17.72,NE,43,0.0,0.0,97,0.00,,---,0.28,VWS V14.00,2013-02-07 12:43:00,
2013-02-07 04:46:00,41.0,40.2,17.72,NE,43,0.0,0.0,97,0.00,,---,0.28,VWS V14.00,2013-02-07 12:46:00,
2013-02-07 04:48:00,41.0,40.2,17.72,NE,43,0.0,0.0,97,0.00,,---,0.28,VWS V14.00,2013-02-07 12:48:00,
2013-02-07 04:49:00,41.0,40.2,17.72,NE,43,0.0,0.0,97,0.00,,---,0.28,VWS V14.00,2013-02-07 12:49:00,
2013-02-07 04:51:00,40.8,40.0,17.72,NE,43,0.0,0.0,97,0.00,,---,0.28,VWS V14.00,2013-02-07 12:51:00,
2013-02-07 04:53:00,40.6,39.9,17.72,NE,43,0.0,0.0,97,0.00,,---,0.28,VWS V14.00,2013-02-07 12:53:00,
2013-02-07 04:54:00,40.6,39.9,17.72,NE,43,0.0,0.0,97,0.00,,---,0.28,VWS V14.00,2013-02-07 12:54:00,
2013-02-07 04:56:00,40.6,39.9,17.72,NE,43,0.0,0.0,97,0.00,,---,0.28,VWS V14.00,2013-02-07 12:56:00,
2013-02-07 04:58:00,40.5,39.7,17.72,NE,43,0.0,0.0,97,0.00,,---,0.28,VWS V14.00,2013-02-07 12:58:00,
2013-02-07 04:59:00,40.5,39.7,17.72,NE,43,0.0,0.0,97,0.00,,---,0.28,VWS V14.00,2013-02-07 12:59:00,
2013-02-07 05:01:00,40.5,39.7,17.72,NE,43,0.0,0.0,97,0.00,,---,0.28,VWS V14.00,2013-02-07 13:01:00,
2013-02-07 05:03:00,40.5,39.7,17.72,NE,43,0.0,0.0,97,0.00,,---,0.28,VWS V14.00,2013-02-07 13:03:00,
2013-02-07 05:04:00,40.5,39.7,17.72,NE,43,0.0,0.0,97,0.00,,---,0.28,VWS V14.00,2013-02-07 13:04:00,
2013-02-07 05:06:00,40.5,39.7,17.72,NE,43,0.0,0.0,97,0.00,,---,0.28,VWS V14.00,2013-02-07 13:06:00,
2013-02-07 05:08:00,40.5,39.7,17.72,NE,43,0.0,0.0,97,0.00,,---,0.28,VWS V14.00,2013-02-07 13:08:00,
2013-02-07 05:09:00,40.5,39.7,17.72,NE,43,0.0,0.0,97,0.00,,---,0.28,VWS V14.00,2013-02-07 13:09:00,
2013-02-07 05:11:00,40.5,39.7,17.72,NE,35,0.0,0.0,97,0.00,,---,0.28,VWS V14.00,2013-02-07 13:11:00,
2013-02-07 05:13:00,40.6,39.9,17.72,NE,35,0.0,0.0,97,0.00,,---,0.28,VWS V14.00,2013-02-07 13:13:00,
2013-02-07 05:14:00,40.6,39.9,17.72,NE,35,0.0,0.0,97,0.00,,---,0.28,VWS V14.00,2013-02-07 13:14:00,
2013-02-07 05:16:00,40.6,39.9,17.72,NE,35,0.0,0.0,97,0.00,,---,0.28,VWS V14.00,2013-02-07 13:16:00,
2013-02-07 05:18:00,40.6,39.9,17.72,NE,35,0.0,0.0,97,0.00,,---,0.28,VWS V14.00,2013-02-07 13:18:00,
2013-02-07 05:19:00,40.6,39.9,17.72,NE,35,0.0,0.0,97,0.00,,---,0.28,VWS V14.00,2013-02-07 13:19:00,
2013-02-07 05:21:00,40.6,40.1,17.72,ESE,103,2.7,3.1,98,0.00,,---,0.28,VWS V14.00,2013-02-07 13:21:00,
2013-02-07 05:23:00,41.0,40.2,17.72,East,92,0.0,2.7,97,0.00,,---,0.28,VWS V14.00,2013-02-07 13:23:00,
2013-02-07 05:24:00,41.0,40.2,17.72,East,92,0.0,2.7,97,0.00,,---,0.28,VWS V14.00,2013-02-07 13:24:00,
2013-02-07 05:26:00,41.2,40.4,17.72,ESE,110,0.0,0.0,97,0.00,,---,0.28,VWS V14.00,2013-02-07 13:26:00,
2013-02-07 05:28:00,41.2,40.7,17.72,ESE,108,0.0,0.0,98,0.00,,---,0.28,VWS V14.00,2013-02-07 13:28:00,
2013-02-07 05:29:00,41.2,40.7,17.72,ESE,108,0.0,0.0,98,0.00,,---,0.28,VWS V14.00,2013-02-07 13:29:00,
2013-02-07 05:31:00,41.4,40.8,17.72,ESE,108,0.0,0.0,98,0.00,,---,0.28,VWS V14.00,2013-02-07 13:31:00,
2013-02-07 05:33:00,41.4,40.8,17.72,ESE,108,0.0,0.0,98,0.00,,---,0.28,VWS V14.00,2013-02-07 13:33:00,
2013-02-07 05:34:00,41.4,40.8,17.72,ESE,108,0.0,0.0,98,0.00,,---,0.28,VWS V14.00,2013-02-07 13:34:00,
2013-02-07 05:36:00,41.7,41.2,17.72,West,267,2.7,3.6,98,0.00,,---,0.28,VWS V14.00,2013-02-07 13:36:00,
2013-02-07 05:38:00,41.5,41.0,17.72,West,269,0.0,2.2,98,0.00,,---,0.28,VWS V14.00,2013-02-07 13:38:00,
2013-02-07 05:39:00,41.5,41.0,17.72,West,269,0.0,2.2,98,0.00,,---,0.28,VWS V14.00,2013-02-07 13:39:00,
2013-02-07 05:41:00,41.5,41.0,17.72,NW,319,0.0,0.0,98,0.04,,---,0.31,VWS V14.00,2013-02-07 13:41:00,
2013-02-07 05:44:00,41.5,41.0,17.72,NW,319,0.0,0.0,98,0.04,,---,0.31,VWS V14.00,2013-02-07 13:44:00,
2013-02-07 05:46:00,41.7,41.2,17.72,NW,319,0.0,0.0,98,0.04,,---,0.31,VWS V14.00,2013-02-07 13:46:00,
2013-02-07 05:49:00,41.7,41.2,17.72,NW,319,0.0,0.0,98,0.04,,---,0.31,VWS V14.00,2013-02-07 13:49:00,
2013-02-07 05:51:00,41.7,41.2,17.72,NW,319,0.0,0.0,98,0.04,,---,0.31,VWS V14.00,2013-02-07 13:51:00,
2013-02-07 05:54:00,41.7,41.2,17.72,NW,319,0.0,0.0,98,0.04,,---,0.31,VWS V14.00,2013-02-07 13:54:00,
2013-02-07 05:56:00,41.7,41.2,17.72,NW,319,0.0,0.0,98,0.04,,---,0.31,VWS V14.00,2013-02-07 13:56:00,
2013-02-07 05:59:00,41.9,41.4,17.72,NW,319,0.0,0.0,98,0.04,,---,0.31,VWS V14.00,2013-02-07 13:59:00,
2013-02-07 06:01:00,41.9,41.4,17.72,SE,135,0.0,0.0,98,0.04,,---,0.31,VWS V14.00,2013-02-07 14:01:00,
2013-02-07 06:04:00,41.9,41.4,17.72,ESE,123,2.2,3.1,98,0.04,,---,0.31,VWS V14.00,2013-02-07 14:04:00,
2013-02-07 06:06:00,41.9,41.4,17.72,ESE,107,2.7,3.1,98,0.04,,---,0.31,VWS V14.00,2013-02-07 14:06:00,
2013-02-07 06:09:00,41.9,41.4,17.72,East,98,3.1,3.6,98,0.04,,---,0.31,VWS V14.00,2013-02-07 14:09:00,
2013-02-07 06:11:00,41.7,41.2,17.72,SE,131,2.2,2.7,98,0.04,,---,0.31,VWS V14.00,2013-02-07 14:11:00,
2013-02-07 06:14:00,41.7,41.2,17.72,ESE,111,2.2,4.0,98,0.04,,---,0.31,VWS V14.00,2013-02-07 14:14:00,
2013-02-07 06:16:00,41.7,41.2,17.72,ESE,115,0.0,2.7,98,0.04,,---,0.31,VWS V14.00,2013-02-07 14:16:00,
2013-02-07 06:19:00,41.5,41.0,17.72,SE,140,2.7,2.7,98,0.04,,---,0.31,VWS V14.00,2013-02-07 14:19:00,
2013-02-07 06:21:00,41.4,40.8,17.72,SE,126,0.0,0.0,98,0.04,,---,0.31,VWS V14.00,2013-02-07 14:21:00,
2013-02-07 06:24:00,41.2,40.7,17.72,ESE,110,2.2,3.1,98,0.04,,---,0.31,VWS V14.00,2013-02-07 14:24:00,
2013-02-07 06:26:00,41.2,40.7,17.72,ESE,105,4.9,4.9,98,0.04,,---,0.31,VWS V14.00,2013-02-07 14:26:00,
2013-02-07 06:29:00,41.2,40.7,17.72,East,100,2.7,3.1,98,0.04,,---,0.31,VWS V14.00,2013-02-07 14:29:00,
2013-02-07 06:31:00,41.0,40.5,17.72,ESE,103,2.7,2.7,98,0.04,,---,0.31,VWS V14.00,2013-02-07 14:31:00,
2013-02-07 06:34:00,40.8,40.3,17.72,ESE,110,2.7,2.7,98,0.04,,---,0.31,VWS V14.00,2013-02-07 14:34:00,
2013-02-07 06:36:00,40.6,40.1,17.72,ESE,122,3.1,3.1,98,0.04,,---,0.31,VWS V14.00,2013-02-07 14:36:00,
2013-02-07 06:39:00,40.6,40.1,17.72,ESE,116,4.0,4.0,98,0.04,,---,0.31,VWS V14.00,2013-02-07 14:39:00,
2013-02-07 06:41:00,40.5,39.9,17.72,East,101,2.2,3.6,98,0.00,,---,0.31,VWS V14.00,2013-02-07 14:41:00,
2013-02-07 06:44:00,40.5,39.9,17.72,ESE,113,2.2,2.7,98,0.00,,---,0.31,VWS V14.00,2013-02-07 14:44:00,
2013-02-07 06:46:00,40.3,39.8,17.72,ESE,122,2.7,2.7,98,0.00,,---,0.31,VWS V14.00,2013-02-07 14:46:00,
2013-02-07 06:49:00,40.1,39.6,17.72,ESE,113,2.2,3.6,98,0.00,,---,0.31,VWS V14.00,2013-02-07 14:49:00,
2013-02-07 06:52:00,40.1,39.6,17.72,East,96,3.1,4.0,98,0.00,,---,0.31,VWS V14.00,2013-02-07 14:52:00,
2013-02-07 06:54:00,40.1,39.6,17.72,East,97,2.7,4.0,98,0.00,,---,0.31,VWS V14.00,2013-02-07 14:54:00,
2013-02-07 06:57:00,39.9,39.4,17.72,ESE,116,3.6,3.6,98,0.00,,---,0.31,VWS V14.00,2013-02-07 14:57:00,
2013-02-07 06:59:00,39.9,39.4,17.72,SE,128,2.7,3.6,98,0.00,,---,0.31,VWS V14.00,2013-02-07 14:59:00,
2013-02-07 07:02:00,39.7,39.2,17.72,East,98,3.6,3.6,98,0.00,,---,0.31,VWS V14.00,2013-02-07 15:02:00,
2013-02-07 07:04:00,39.7,39.2,17.72,East,98,3.6,3.6,98,0.00,,---,0.31,VWS V14.00,2013-02-07 15:04:00,
2013-02-07 07:07:00,39.7,39.2,17.72,East,91,3.6,4.0,98,0.00,,---,0.31,VWS V14.00,2013-02-07 15:07:00,
2013-02-07 07:09:00,39.7,39.2,17.72,East,92,6.3,6.3,98,0.00,,---,0.31,VWS V14.00,2013-02-07 15:09:00,
2013-02-07 07:10:00,39.6,39.0,17.72,East,84,3.6,6.3,98,0.00,,---,0.31,VWS V14.00,2013-02-07 15:10:00,
2013-02-07 07:12:00,39.6,39.0,17.72,East,100,4.0,4.0,98,0.00,,---,0.31,VWS V14.00,2013-02-07 15:12:00,
2013-02-07 07:14:00,39.4,38.9,17.72,East,90,4.0,4.0,98,0.00,,---,0.31,VWS V14.00,2013-02-07 15:14:00,
2013-02-07 07:15:00,39.4,38.9,17.72,ESE,120,2.7,4.9,98,0.00,,---,0.31,VWS V14.00,2013-02-07 15:15:00,
2013-02-07 07:17:00,39.4,38.9,17.72,East,92,3.6,5.4,98,0.00,,---,0.31,VWS V14.00,2013-02-07 15:17:00,
2013-02-07 07:19:00,39.4,38.9,17.72,SSE,155,3.1,3.6,98,0.00,,---,0.31,VWS V14.00,2013-02-07 15:19:00,
2013-02-07 07:20:00,39.4,38.9,17.72,ESE,114,3.1,3.6,98,0.00,,---,0.31,VWS V14.00,2013-02-07 15:20:00,
2013-02-07 07:22:00,39.2,38.7,17.72,ESE,106,3.6,3.6,98,0.00,,---,0.31,VWS V14.00,2013-02-07 15:22:00,
2013-02-07 07:24:00,39.2,38.7,17.72,ESE,119,3.1,3.6,98,0.00,,---,0.31,VWS V14.00,2013-02-07 15:24:00,
2013-02-07 07:25:00,39.2,38.7,17.72,ESE,104,2.7,4.0,98,0.00,,---,0.31,VWS V14.00,2013-02-07 15:25:00,
2013-02-07 07:27:00,39.2,38.7,17.72,ESE,116,0.0,4.0,98,0.00,,---,0.31,VWS V14.00,2013-02-07 15:27:00,
2013-02-07 07:29:00,39.2,38.7,17.72,East,94,4.0,5.4,98,0.00,,---,0.31,VWS V14.00,2013-02-07 15:29:00,
2013-02-07 07:30:00,39.2,38.7,17.72,ESE,120,4.5,5.4,98,0.00,,---,0.31,VWS V14.00,2013-02-07 15:30:00,
2013-02-07 07:32:00,39.2,38.7,17.72,East,98,2.7,3.1,98,0.00,,---,0.31,VWS V14.00,2013-02-07 15:32:00,
2013-02-07 07:34:00,39.2,38.7,17.72,ESE,111,3.1,3.6,98,0.00,,---,0.31,VWS V14.00,2013-02-07 15:34:00,
2013-02-07 07:35:00,39.2,38.7,17.72,ESE,102,3.6,3.6,98,0.00,,---,0.31,VWS V14.00,2013-02-07 15:35:00,
2013-02-07 07:37:00,39.2,38.7,17.72,East,98,4.0,4.0,98,0.00,,---,0.31,VWS V14.00,2013-02-07 15:37:00,
2013-02-07 07:39:00,39.2,38.7,17.72,ESE,105,4.0,4.0,98,0.00,,---,0.31,VWS V14.00,2013-02-07 15:39:00,
2013-02-07 07:40:00,39.2,38.7,17.72,ESE,119,4.9,4.9,98,0.00,,---,0.31,VWS V14.00,2013-02-07 15:40:00,
2013-02-07 07:42:00,39.2,38.7,17.72,East,96,5.4,6.3,98,0.00,,---,0.31,VWS V14.00,2013-02-07 15:42:00,
2013-02-07 07:44:00,39.2,38.7,17.72,East,93,3.6,4.0,98,0.00,,---,0.31,VWS V14.00,2013-02-07 15:44:00,
2013-02-07 07:45:00,39.2,38.7,17.72,ENE,70,3.1,4.0,98,0.00,,---,0.31,VWS V14.00,2013-02-07 15:45:00,
2013-02-07 07:47:00,39.2,38.7,17.72,SE,133,3.6,3.6,98,0.00,,---,0.31,VWS V14.00,2013-02-07 15:47:00,
2013-02-07 07:49:00,39.2,38.7,17.72,ESE,114,3.1,5.4,98,0.00,,---,0.31,VWS V14.00,2013-02-07 15:49:00,
2013-02-07 07:50:00,39.2,38.7,17.72,SE,136,4.0,5.4,98,0.00,,---,0.31,VWS V14.00,2013-02-07 15:50:00,
2013-02-07 07:52:00,39.2,38.7,17.72,ESE,119,3.1,4.0,98,0.00,,---,0.31,VWS V14.00,2013-02-07 15:52:00,
2013-02-07 07:54:00,39.4,38.9,17.72,East,98,3.1,3.1,98,0.00,,---,0.31,VWS V14.00,2013-02-07 15:54:00,
2013-02-07 07:55:00,39.4,38.9,17.72,SE,124,4.9,4.9,98,0.00,,---,0.31,VWS V14.00,2013-02-07 15:55:00,
2013-02-07 07:57:00,39.4,38.9,17.72,ESE,112,3.6,4.0,98,0.00,,---,0.31,VWS V14.00,2013-02-07 15:57:00,
2013-02-07 07:59:00,39.6,39.0,17.72,ESE,109,3.1,5.8,98,0.00,,---,0.31,VWS V14.00,2013-02-07 15:59:00,
2013-02-07 08:00:00,39.6,39.0,17.72,ESE,109,3.1,5.8,98,0.00,,---,0.31,VWS V14.00,2013-02-07 16:00:00,
2013-02-07 08:02:00,39.7,39.2,17.72,ESE,116,3.1,3.6,98,0.00,,---,0.31,VWS V14.00,2013-02-07 16:02:00,
2013-02-07 08:04:00,39.7,39.2,17.72,ESE,109,2.2,2.2,98,0.00,,---,0.31,VWS V14.00,2013-02-07 16:04:00,
2013-02-07 08:05:00,39.7,39.2,17.72,ESE,109,2.2,2.2,98,0.00,,---,0.31,VWS V14.00,2013-02-07 16:05:00,
2013-02-07 08:07:00,39.9,39.4,17.72,ESE,107,3.1,3.6,98,0.00,,---,0.31,VWS V14.00,2013-02-07 16:07:00,
2013-02-07 08:09:00,40.3,39.8,17.72,ESE,106,2.2,3.1,98,0.00,,---,0.31,VWS V14.00,2013-02-07 16:09:00,
2013-02-07 08:10:00,40.3,39.8,17.72,ESE,111,3.6,3.6,98,0.00,,---,0.31,VWS V14.00,2013-02-07 16:10:00,
2013-02-07 08:12:00,40.6,40.1,17.72,ESE,117,3.1,3.1,98,0.00,,---,0.31,VWS V14.00,2013-02-07 16:12:00,
2013-02-07 08:14:00,40.8,40.3,17.72,East,86,2.7,5.4,98,0.00,,---,0.31,VWS V14.00,2013-02-07 16:14:00,
2013-02-07 08:15:00,40.8,40.3,17.72,SE,142,4.0,5.4,98,0.00,,---,0.31,VWS V14.00,2013-02-07 16:15:00,
2013-02-07 08:17:00,41.0,40.5,17.72,ESE,119,3.6,3.6,98,0.00,,---,0.31,VWS V14.00,2013-02-07 16:17:00,
2013-02-07 08:20:00,41.2,40.7,17.72,East,89,3.6,3.6,98,0.00,,---,0.31,VWS V14.00,2013-02-07 16:20:00,
2013-02-07 08:22:00,41.2,40.7,17.72,ESE,115,3.6,3.6,98,0.00,,---,0.31,VWS V14.00,2013-02-07 16:22:00,
2013-02-07 08:25:00,41.4,40.8,17.72,ESE,106,2.7,2.7,98,0.00,,---,0.31,VWS V14.00,2013-02-07 16:25:00,
2013-02-07 08:27:00,41.5,41.0,17.72,ESE,111,5.8,5.8,98,0.00,,---,0.31,VWS V14.00,2013-02-07 16:27:00,
2013-02-07 08:30:00,41.7,41.2,17.72,SE,135,5.4,6.3,98,0.00,,---,0.31,VWS V14.00,2013-02-07 16:30:00,
2013-02-07 08:32:00,41.7,41.2,17.72,East,97,4.9,4.9,98,0.00,,---,0.31,VWS V14.00,2013-02-07 16:32:00,
2013-02-07 08:35:00,41.5,41.0,17.72,ESE,111,3.1,3.6,98,0.00,,---,0.31,VWS V14.00,2013-02-07 16:35:00,
2013-02-07 08:37:00,41.5,41.0,17.72,ESE,106,4.9,4.9,98,0.00,,---,0.31,VWS V14.00,2013-02-07 16:37:00,
2013-02-07 08:40:00,41.5,41.0,17.72,ENE,68,2.7,3.1,98,0.00,,---,0.31,VWS V14.00,2013-02-07 16:40:00,
2013-02-07 08:42:00,41.7,41.2,17.72,ESE,115,3.6,5.4,98,0.00,,---,0.31,VWS V14.00,2013-02-07 16:42:00,
2013-02-07 08:45:00,41.9,41.4,17.72,ESE,117,3.6,5.4,98,0.00,,---,0.31,VWS V14.00,2013-02-07 16:45:00,
2013-02-07 08:47:00,42.1,41.6,17.72,ESE,120,3.6,4.0,98,0.00,,---,0.31,VWS V14.00,2013-02-07 16:47:00,
2013-02-07 08:50:00,42.3,41.7,17.72,ESE,122,4.0,6.3,98,0.00,,---,0.31,VWS V14.00,2013-02-07 16:50:00,
2013-02-07 08:52:00,42.3,41.7,17.72,ESE,109,2.2,2.2,98,0.00,,---,0.31,VWS V14.00,2013-02-07 16:52:00,
2013-02-07 08:55:00,42.4,41.9,17.72,SSE,150,2.7,5.4,98,0.00,,---,0.31,VWS V14.00,2013-02-07 16:55:00,
2013-02-07 08:57:00,42.6,42.1,17.72,SE,144,0.0,2.7,98,0.00,,---,0.31,VWS V14.00,2013-02-07 16:57:00,
2013-02-07 09:00:00,42.8,42.3,17.72,ENE,69,0.0,3.6,98,0.00,,---,0.31,VWS V14.00,2013-02-07 17:00:00,
2013-02-07 09:02:00,43.0,42.5,17.72,SE,142,3.1,5.8,98,0.00,,---,0.31,VWS V14.00,2013-02-07 17:02:00,
2013-02-07 09:05:00,43.2,42.6,17.72,East,92,4.0,4.9,98,0.00,,---,0.31,VWS V14.00,2013-02-07 17:05:00,
2013-02-07 09:07:00,43.3,42.8,17.72,ESE,112,3.1,3.1,98,0.00,,---,0.31,VWS V14.00,2013-02-07 17:07:00,
2013-02-07 09:10:00,43.5,43.0,17.72,East,92,4.0,4.0,98,0.00,,---,0.31,VWS V14.00,2013-02-07 17:10:00,
2013-02-07 09:12:00,43.5,43.0,17.72,ESE,115,2.2,3.1,98,0.00,,---,0.31,VWS V14.00,2013-02-07 17:12:00,
2013-02-07 09:15:00,43.9,43.3,17.72,ESE,104,4.0,4.0,98,0.00,,---,0.31,VWS V14.00,2013-02-07 17:15:00,
2013-02-07 09:17:00,44.1,43.5,17.72,SE,135,2.7,3.6,98,0.00,,---,0.31,VWS V14.00,2013-02-07 17:17:00,
2013-02-07 09:20:00,44.1,43.5,17.72,East,96,3.6,5.8,98,0.00,,---,0.31,VWS V14.00,2013-02-07 17:20:00,
2013-02-07 09:22:00,44.2,43.7,17.72,East,81,2.7,4.0,98,0.00,,---,0.31,VWS V14.00,2013-02-07 17:22:00,
2013-02-07 09:25:00,44.4,43.9,17.72,SE,130,3.1,3.1,98,0.00,,---,0.31,VWS V14.00,2013-02-07 17:25:00,
2013-02-07 09:26:00,44.4,43.9,17.72,SE,135,5.4,5.4,98,0.00,,---,0.31,VWS V14.00,2013-02-07 17:26:00,
2013-02-07 09:27:00,44.6,44.1,17.72,ESE,115,6.3,6.3,98,0.00,,---,0.31,VWS V14.00,2013-02-07 17:27:00,
2013-02-07 09:30:00,44.6,44.1,17.72,ESE,117,4.0,4.0,98,0.00,,---,0.31,VWS V14.00,2013-02-07 17:30:00,
2013-02-07 09:31:00,44.8,44.2,17.72,SE,130,3.6,4.9,98,0.00,,---,0.31,VWS V14.00,2013-02-07 17:31:00,
2013-02-07 09:32:00,44.8,44.2,17.72,East,89,3.1,6.3,98,0.00,,---,0.31,VWS V14.00,2013-02-07 17:32:00,
2013-02-07 09:35:00,45.0,44.4,17.72,ESE,103,6.3,6.3,98,0.00,,---,0.31,VWS V14.00,2013-02-07 17:35:00,
2013-02-07 09:36:00,45.1,44.6,17.72,SSE,160,6.3,6.3,98,0.00,,---,0.31,VWS V14.00,2013-02-07 17:36:00,
2013-02-07 09:37:00,45.1,44.6,17.72,ESE,117,3.1,3.1,98,0.00,,---,0.31,VWS V14.00,2013-02-07 17:37:00,
2013-02-07 09:40:00,45.3,44.8,17.72,East,96,7.6,7.6,98,0.00,,---,0.31,VWS V14.00,2013-02-07 17:40:00,
2013-02-07 09:41:00,45.5,45.0,17.72,ESE,102,4.9,7.6,98,0.00,,---,0.31,VWS V14.00,2013-02-07 17:41:00,
2013-02-07 09:43:00,45.5,45.0,17.72,ESE,120,6.3,6.3,98,0.00,,---,0.31,VWS V14.00,2013-02-07 17:43:00,
2013-02-07 09:45:00,45.9,45.3,17.72,East,88,3.1,3.1,98,0.00,,---,0.31,VWS V14.00,2013-02-07 17:45:00,
2013-02-07 09:46:00,45.9,45.3,17.72,East,88,4.0,5.8,98,0.00,,---,0.31,VWS V14.00,2013-02-07 17:46:00,
2013-02-07 09:48:00,46.0,45.5,17.72,ESE,110,2.7,3.6,98,0.00,,---,0.31,VWS V14.00,2013-02-07 17:48:00,
2013-02-07 09:50:00,46.2,45.7,17.72,East,88,3.1,4.9,98,0.00,,---,0.31,VWS V14.00,2013-02-07 17:50:00,
2013-02-07 09:51:00,46.4,45.9,17.72,East,90,4.0,4.0,98,0.00,,---,0.31,VWS V14.00,2013-02-07 17:51:00,
2013-02-07 09:52:00,46.6,46.0,17.72,ESE,121,4.9,7.6,98,0.00,,---,0.31,VWS V14.00,2013-02-07 17:52:00,
2013-02-07 09:55:00,46.9,46.4,17.72,ESE,122,4.0,5.8,98,0.00,,---,0.31,VWS V14.00,2013-02-07 17:55:00,
2013-02-07 09:56:00,47.1,46.6,17.72,ESE,106,3.6,3.6,98,0.00,,---,0.31,VWS V14.00,2013-02-07 17:56:00,
2013-02-07 09:58:00,47.1,46.6,17.72,ESE,113,4.0,5.4,98,0.00,,---,0.31,VWS V14.00,2013-02-07 17:58:00,
2013-02-07 10:00:00,47.3,46.8,17.72,SE,126,3.6,4.0,98,0.00,,---,0.31,VWS V14.00,2013-02-07 18:00:00,
2013-02-07 10:01:00,47.5,47.0,17.72,SE,139,3.1,4.0,98,0.00,,---,0.31,VWS V14.00,2013-02-07 18:01:00,
2013-02-07 10:03:00,47.7,47.1,17.72,North,357,0.0,4.5,98,0.00,,---,0.31,VWS V14.00,2013-02-07 18:03:00,
2013-02-07 10:05:00,47.7,47.1,17.72,East,79,3.6,3.6,98,0.00,,---,0.31,VWS V14.00,2013-02-07 18:05:00,
2013-02-07 10:06:00,47.8,47.3,17.72,ESE,110,5.4,6.3,98,0.00,,---,0.31,VWS V14.00,2013-02-07 18:06:00,
2013-02-07 10:08:00,48.0,47.5,17.72,SSE,158,2.2,6.3,98,0.00,,---,0.31,VWS V14.00,2013-02-07 18:08:00,
2013-02-07 10:10:00,48.4,47.8,17.72,East,98,4.9,4.9,98,0.00,,---,0.31,VWS V14.00,2013-02-07 18:10:00,
2013-02-07 10:12:00,48.6,48.0,17.72,SE,135,2.7,2.7,98,0.00,,---,0.31,VWS V14.00,2013-02-07 18:12:00,
2013-02-07 10:13:00,48.7,48.2,17.72,ESE,104,4.9,5.4,98,0.00,,---,0.31,VWS V14.00,2013-02-07 18:13:00,
2013-02-07 10:15:00,48.7,48.2,17.72,SE,124,3.1,4.9,98,0.00,,---,0.31,VWS V14.00,2013-02-07 18:15:00,
2013-02-07 10:16:00,48.7,47.9,17.72,East,101,6.3,6.3,97,0.00,,---,0.31,VWS V14.00,2013-02-07 18:16:00,
2013-02-07 10:17:00,48.7,47.9,17.72,ESE,104,5.8,6.3,97,0.00,,---,0.31,VWS V14.00,2013-02-07 18:17:00,
2013-02-07 10:18:00,48.9,47.8,17.72,SSW,204,5.4,5.8,96,0.00,,---,0.31,VWS V14.00,2013-02-07 18:18:00,
2013-02-07 10:20:00,49.5,48.1,17.72,ESE,108,4.0,4.0,95,0.00,,---,0.31,VWS V14.00,2013-02-07 18:20:00,
2013-02-07 10:21:00,49.3,47.6,17.72,SSE,168,3.6,3.6,94,0.00,,---,0.31,VWS V14.00,2013-02-07 18:21:00,
2013-02-07 10:22:00,49.3,47.6,17.72,ESE,110,2.2,3.6,94,0.00,,---,0.31,VWS V14.00,2013-02-07 18:22:00,
2013-02-07 10:23:00,49.8,47.9,17.72,East,82,3.6,3.6,93,0.00,,---,0.31,VWS V14.00,2013-02-07 18:23:00,
2013-02-07 10:25:00,50.0,47.2,17.72,ESE,115,3.1,5.8,90,0.00,,---,0.31,VWS V14.00,2013-02-07 18:25:00,
2013-02-07 10:26:00,50.2,46.8,17.72,East,98,4.9,5.8,88,0.00,,---,0.31,VWS V14.00,2013-02-07 18:26:00,
2013-02-07 10:27:00,50.2,46.8,17.72,ESE,106,4.0,5.8,88,0.00,,---,0.31,VWS V14.00,2013-02-07 18:27:00,
2013-02-07 10:28:00,50.4,46.3,17.72,ESE,108,5.4,5.4,86,0.00,,---,0.31,VWS V14.00,2013-02-07 18:28:00,
2013-02-07 10:30:00,50.7,45.4,17.72,East,93,0.0,3.1,82,0.00,,---,0.31,VWS V14.00,2013-02-07 18:30:00,
2013-02-07 10:31:00,50.7,44.5,17.72,ESE,111,0.0,4.0,79,0.00,,---,0.31,VWS V14.00,2013-02-07 18:31:00,
2013-02-07 10:32:00,51.3,45.0,17.72,ESE,118,4.0,4.0,79,0.00,,---,0.31,VWS V14.00,2013-02-07 18:32:00,
2013-02-07 10:33:00,51.3,44.6,17.72,South,179,2.2,4.0,78,0.00,,---,0.31,VWS V14.00,2013-02-07 18:33:00,
2013-02-07 10:35:00,51.8,45.5,17.72,SE,144,0.0,3.1,79,0.00,,---,0.31,VWS V14.00,2013-02-07 18:35:00,
2013-02-07 10:36:00,52.0,45.3,17.72,SW,224,4.0,4.0,78,0.00,,---,0.31,VWS V14.00,2013-02-07 18:36:00,
2013-02-07 10:37:00,52.0,42.9,17.72,SE,137,2.7,4.0,71,0.00,,---,0.31,VWS V14.00,2013-02-07 18:37:00,
2013-02-07 10:38:00,52.2,43.1,17.72,ESE,113,3.6,3.6,71,0.00,,---,0.31,VWS V14.00,2013-02-07 18:38:00,
2013-02-07 10:40:00,51.8,41.6,17.72,SSE,148,4.0,5.8,68,0.00,,---,0.31,VWS V14.00,2013-02-07 18:40:00,
2013-02-07 10:42:00,51.8,40.4,17.72,SSE,168,3.1,5.8,65,0.00,,---,0.31,VWS V14.00,2013-02-07 18:42:00,
2013-02-07 10:43:00,52.0,39.4,17.72,SSE,148,0.0,0.0,62,0.00,,---,0.31,VWS V14.00,2013-02-07 18:43:00,
2013-02-07 10:45:00,51.8,39.2,17.72,South,176,3.1,3.1,62,0.00,,---,0.31,VWS V14.00,2013-02-07 18:45:00,
2013-02-07 10:47:00,52.0,40.2,17.72,SE,143,0.0,3.6,64,0.00,,---,0.31,VWS V14.00,2013-02-07 18:47:00,
2013-02-07 10:48:00,52.0,41.0,17.72,South,176,2.7,2.7,66,0.00,,---,0.31,VWS V14.00,2013-02-07 18:48:00,
2013-02-07 10:50:00,52.0,40.6,17.72,ESE,121,2.7,2.7,65,0.00,,---,0.31,VWS V14.00,2013-02-07 18:50:00,
2013-02-07 10:52:00,52.3,40.5,17.72,SSE,152,0.0,3.1,64,0.00,,---,0.31,VWS V14.00,2013-02-07 18:52:00,
2013-02-07 10:53:00,52.3,40.5,17.72,ESE,118,3.6,5.4,64,0.00,,---,0.31,VWS V14.00,2013-02-07 18:53:00,
2013-02-07 10:55:00,52.5,40.7,17.72,ENE,76,3.6,4.0,64,0.00,,---,0.31,VWS V14.00,2013-02-07 18:55:00,
2013-02-07 10:57:00,52.3,38.5,17.72,East,89,3.6,5.8,59,0.00,,---,0.31,VWS V14.00,2013-02-07 18:57:00,
2013-02-07 10:58:00,52.2,36.0,17.72,ESE,112,2.7,2.7,54,0.00,,---,0.31,VWS V14.00,2013-02-07 18:58:00,
2013-02-07 11:01:00,52.2,36.5,17.72,SE,146,3.1,3.1,55,0.00,,---,0.31,VWS V14.00,2013-02-07 19:01:00,
2013-02-07 11:02:00,52.0,36.8,17.72,SSE,151,2.2,4.0,56,0.00,,---,0.31,VWS V14.00,2013-02-07 19:02:00,
2013-02-07 11:03:00,52.0,37.7,17.72,South,169,3.1,3.1,58,0.00,,---,0.31,VWS V14.00,2013-02-07 19:03:00,
2013-02-07 11:06:00,51.8,37.5,17.72,East,90,3.1,3.1,58,0.00,,---,0.31,VWS V14.00,2013-02-07 19:06:00,
2013-02-07 11:07:00,51.8,36.6,17.72,ESE,103,2.2,3.1,56,0.00,,---,0.31,VWS V14.00,2013-02-07 19:07:00,
2013-02-07 11:08:00,51.6,35.5,17.72,ESE,115,3.1,3.6,54,0.00,,---,0.31,VWS V14.00,2013-02-07 19:08:00,
2013-02-07 11:11:00,51.6,34.6,17.72,South,176,0.0,0.0,52,0.00,,---,0.31,VWS V14.00,2013-02-07 19:11:00,
2013-02-07 11:12:00,51.6,33.6,17.72,SSW,201,4.0,4.0,50,0.00,,---,0.31,VWS V14.00,2013-02-07 19:12:00,
2013-02-07 11:13:00,51.6,33.6,17.72,South,179,2.7,2.7,50,0.00,,---,0.31,VWS V14.00,2013-02-07 19:13:00,
2013-02-07 11:16:00,51.6,33.1,17.72,South,180,2.7,2.7,49,0.00,,---,0.31,VWS V14.00,2013-02-07 19:16:00,
2013-02-07 11:17:00,51.6,33.1,17.72,SE,130,2.7,3.1,49,0.00,,---,0.31,VWS V14.00,2013-02-07 19:17:00,
2013-02-07 11:18:00,51.6,33.1,17.72,South,176,0.0,0.0,49,0.00,,---,0.31,VWS V14.00,2013-02-07 19:18:00,
2013-02-07 11:21:00,51.6,33.1,17.72,South,182,5.4,5.8,49,0.00,,---,0.31,VWS V14.00,2013-02-07 19:21:00,
2013-02-07 11:22:00,51.4,32.9,17.72,SSE,159,0.0,0.0,49,0.00,,---,0.31,VWS V14.00,2013-02-07 19:22:00,
2013-02-07 11:23:00,51.4,32.9,17.72,South,188,0.0,0.0,49,0.00,,---,0.31,VWS V14.00,2013-02-07 19:23:00,
2013-02-07 11:26:00,51.6,33.6,17.72,SSE,153,3.1,4.0,50,0.00,,---,0.31,VWS V14.00,2013-02-07 19:26:00,
2013-02-07 11:27:00,51.4,32.9,17.72,SSE,165,3.6,5.4,49,0.00,,---,0.31,VWS V14.00,2013-02-07 19:27:00,
2013-02-07 11:28:00,51.3,32.8,17.72,SSE,157,2.7,2.7,49,0.00,,---,0.31,VWS V14.00,2013-02-07 19:28:00,
2013-02-07 11:31:00,51.4,33.4,17.72,SSW,192,3.1,3.1,50,0.00,,---,0.31,VWS V14.00,2013-02-07 19:31:00,
2013-02-07 11:32:00,51.4,33.4,17.72,SW,216,2.7,2.7,50,0.00,,---,0.31,VWS V14.00,2013-02-07 19:32:00,
2013-02-07 11:33:00,51.4,33.4,17.72,South,172,2.7,2.7,50,0.00,,---,0.31,VWS V14.00,2013-02-07 19:33:00,
2013-02-07 11:36:00,51.4,33.9,17.72,SW,225,0.0,2.2,51,0.00,,---,0.31,VWS V14.00,2013-02-07 19:36:00,
2013-02-07 11:37:00,51.4,34.4,17.72,South,179,2.7,2.7,52,0.00,,---,0.31,VWS V14.00,2013-02-07 19:37:00,
2013-02-07 11:38:00,51.3,34.2,17.72,SE,142,3.1,3.1,52,0.00,,---,0.31,VWS V14.00,2013-02-07 19:38:00,
2013-02-07 11:41:00,50.9,34.4,17.72,SSW,195,6.3,6.3,53,0.00,,---,0.31,VWS V14.00,2013-02-07 19:41:00,
2013-02-07 11:42:00,50.0,32.6,17.72,SSW,199,5.4,5.4,51,0.00,,---,0.31,VWS V14.00,2013-02-07 19:42:00,
2013-02-07 11:43:00,49.8,32.4,17.72,West,264,4.9,7.6,51,0.00,,---,0.31,VWS V14.00,2013-02-07 19:43:00,
2013-02-07 11:46:00,49.1,32.7,17.72,SSW,199,5.4,8.3,53,0.00,,---,0.31,VWS V14.00,2013-02-07 19:46:00,
2013-02-07 11:47:00,48.7,33.8,17.72,SSE,164,8.7,10.1,56,0.00,,---,0.31,VWS V14.00,2013-02-07 19:47:00,
2013-02-07 11:48:00,48.7,33.8,17.72,SW,226,7.2,10.1,56,0.00,,---,0.31,VWS V14.00,2013-02-07 19:48:00,
2013-02-07 11:51:00,47.7,36.1,17.72,SSE,165,7.6,8.7,64,0.00,,---,0.31,VWS V14.00,2013-02-07 19:51:00,
2013-02-07 11:52:00,47.5,37.1,17.72,WSW,248,4.0,7.6,67,0.00,,---,0.31,VWS V14.00,2013-02-07 19:52:00,
2013-02-07 11:53:00,47.3,37.3,17.72,SSW,206,5.8,7.6,68,0.00,,---,0.31,VWS V14.00,2013-02-07 19:53:00,
2013-02-07 11:56:00,46.6,38.0,17.72,SSW,197,4.0,10.5,72,0.00,,---,0.31,VWS V14.00,2013-02-07 19:56:00,
2013-02-07 11:57:00,46.4,37.9,17.72,WSW,251,5.8,5.8,72,0.00,,---,0.31,VWS V14.00,2013-02-07 19:57:00,
2013-02-07 11:58:00,46.4,38.2,17.72,SSE,150,3.6,5.8,73,0.00,,---,0.31,VWS V14.00,2013-02-07 19:58:00,
2013-02-07 12:01:00,46.2,38.8,17.72,SSE,152,3.1,7.6,75,0.00,,---,0.31,VWS V14.00,2013-02-07 20:01:00,
2013-02-07 12:02:00,46.0,38.9,17.72,SSW,202,4.0,8.3,76,0.00,,---,0.31,VWS V14.00,2013-02-07 20:02:00,
2013-02-07 12:03:00,46.0,38.9,17.72,SSE,161,7.6,8.3,76,0.00,,---,0.31,VWS V14.00,2013-02-07 20:03:00,
2013-02-07 12:06:00,45.9,39.4,17.72,SE,142,6.3,8.1,78,0.00,,---,0.31,VWS V14.00,2013-02-07 20:06:00,
2013-02-07 12:07:00,45.7,39.5,17.72,South,186,5.4,5.4,79,0.00,,---,0.31,VWS V14.00,2013-02-07 20:07:00,
2013-02-07 12:08:00,45.7,39.5,17.72,SW,231,6.3,6.3,79,0.00,,---,0.31,VWS V14.00,2013-02-07 20:08:00,
2013-02-07 12:11:00,45.7,39.5,17.72,WSW,245,0.0,4.9,79,0.00,,---,0.31,VWS V14.00,2013-02-07 20:11:00,
2013-02-07 12:12:00,45.9,40.0,17.72,ESE,118,4.0,4.0,80,0.00,,---,0.31,VWS V14.00,2013-02-07 20:12:00,
2013-02-07 12:13:00,45.9,40.0,17.72,SE,129,5.4,5.4,80,0.00,,---,0.31,VWS V14.00,2013-02-07 20:13:00,
2013-02-07 12:16:00,45.7,39.9,17.72,SE,143,5.4,7.6,80,0.00,,---,0.31,VWS V14.00,2013-02-07 20:16:00,
2013-02-07 12:17:00,45.7,39.9,17.72,South,184,2.7,4.0,80,0.04,,---,0.35,VWS V14.00,2013-02-07 20:17:00,
2013-02-07 12:18:00,45.7,39.9,17.72,SSE,147,2.7,4.0,80,0.04,,---,0.35,VWS V14.00,2013-02-07 20:18:00,
2013-02-07 12:21:00,46.0,40.2,17.72,SSE,150,3.6,4.9,80,0.04,,---,0.35,VWS V14.00,2013-02-07 20:21:00,
2013-02-07 12:22:00,46.2,40.7,17.72,South,173,4.0,4.0,81,0.04,,---,0.35,VWS V14.00,2013-02-07 20:22:00,
2013-02-07 12:23:00,46.2,40.7,17.72,SSW,193,4.0,4.0,81,0.04,,---,0.00,VWS V14.00,2013-02-07 20:23:00,
2013-02-07 12:26:00,46.6,41.1,17.72,SE,125,3.1,4.9,81,0.04,,---,0.35,VWS V14.00,2013-02-07 20:26:00,
2013-02-07 12:27:00,46.8,40.9,17.72,SE,141,3.6,3.6,80,0.04,,---,0.35,VWS V14.00,2013-02-07 20:27:00,
2013-02-07 12:28:00,46.8,40.9,17.72,SE,133,2.7,3.6,80,0.04,,---,0.35,VWS V14.00,2013-02-07 20:28:00,
2013-02-07 12:31:00,47.1,41.0,17.72,South,179,0.0,6.3,79,0.04,,---,0.35,VWS V14.00,2013-02-07 20:31:00,
2013-02-07 12:32:00,47.3,41.1,17.72,South,176,0.0,3.1,79,0.04,,---,0.35,VWS V14.00,2013-02-07 20:32:00,
2013-02-07 12:33:00,47.3,40.8,17.72,South,169,4.9,4.9,78,0.04,,---,0.35,VWS V14.00,2013-02-07 20:33:00,
2013-02-07 12:36:00,47.7,40.8,17.72,SE,142,4.0,4.9,77,0.04,,---,0.35,VWS V14.00,2013-02-07 20:36:00,
2013-02-07 12:38:00,47.7,40.5,17.72,SE,143,3.1,6.3,76,0.04,,---,0.35,VWS V14.00,2013-02-07 20:38:00,
2013-02-07 12:41:00,48.0,40.8,17.72,SSE,167,2.7,5.4,76,0.04,,---,0.35,VWS V14.00,2013-02-07 20:41:00,
2013-02-07 12:43:00,48.4,40.8,17.72,SSE,168,0.0,2.7,75,0.04,,---,0.35,VWS V14.00,2013-02-07 20:43:00,
2013-02-07 12:46:00,48.7,41.2,17.72,SE,124,0.0,2.7,75,0.04,,---,0.35,VWS V14.00,2013-02-07 20:46:00,
2013-02-07 12:48:00,49.3,41.7,17.72,East,83,3.6,3.6,75,0.04,,---,0.35,VWS V14.00,2013-02-07 20:48:00,
2013-02-07 12:49:00,49.3,41.4,17.72,ESE,117,2.7,3.6,74,0.04,,---,0.35,VWS V14.00,2013-02-07 20:49:00,
2013-02-07 12:51:00,49.6,41.7,17.72,South,170,2.7,5.8,74,0.04,,---,0.35,VWS V14.00,2013-02-07 20:51:00,
2013-02-07 12:53:00,49.8,41.5,17.72,SE,129,3.1,3.6,73,0.04,,---,0.35,VWS V14.00,2013-02-07 20:53:00,
2013-02-07 12:54:00,50.0,41.0,17.72,East,89,4.0,4.0,71,0.04,,---,0.35,VWS V14.00,2013-02-07 20:54:00,
2013-02-07 12:56:00,50.2,40.8,17.72,SSE,166,6.7,6.7,70,0.04,,---,0.35,VWS V14.00,2013-02-07 20:56:00,
2013-02-07 12:58:00,50.4,41.0,17.72,ESE,108,5.4,5.4,70,0.04,,---,0.35,VWS V14.00,2013-02-07 20:58:00,
2013-02-07 12:59:00,50.4,40.6,17.72,ESE,115,3.1,4.9,69,0.04,,---,0.35,VWS V14.00,2013-02-07 20:59:00,
2013-02-07 13:01:00,50.5,40.4,17.72,South,184,0.0,2.2,68,0.04,,---,0.35,VWS V14.00,2013-02-07 21:01:00,
2013-02-07 13:03:00,50.7,40.6,17.72,ESE,113,0.0,4.0,68,0.04,,---,0.35,VWS V14.00,2013-02-07 21:03:00,
2013-02-07 13:04:00,50.9,40.7,17.72,SE,132,0.0,0.0,68,0.04,,---,0.35,VWS V14.00,2013-02-07 21:04:00,
2013-02-07 13:06:00,51.3,41.5,17.72,SSE,149,4.0,4.0,69,0.04,,---,0.35,VWS V14.00,2013-02-07 21:06:00,
2013-02-07 13:08:00,51.1,40.9,17.72,ESE,111,2.2,2.7,68,0.04,,---,0.35,VWS V14.00,2013-02-07 21:08:00,
2013-02-07 13:09:00,51.3,40.7,17.72,East,101,3.6,3.6,67,0.04,,---,0.35,VWS V14.00,2013-02-07 21:09:00,
2013-02-07 13:11:00,51.1,39.7,17.72,SE,126,2.2,3.1,65,0.04,,---,0.35,VWS V14.00,2013-02-07 21:11:00,
2013-02-07 13:13:00,51.1,39.7,17.72,South,172,3.6,4.0,65,0.04,,---,0.35,VWS V14.00,2013-02-07 21:13:00,
2013-02-07 13:14:00,50.7,39.0,17.72,SE,128,0.0,4.5,64,0.04,,---,0.35,VWS V14.00,2013-02-07 21:14:00,
2013-02-07 13:16:00,50.7,39.4,17.72,East,96,0.0,0.0,65,0.04,,---,0.35,VWS V14.00,2013-02-07 21:16:00,
2013-02-07 13:18:00,50.7,39.4,17.72,SSE,157,2.2,3.1,65,0.00,,---,0.35,VWS V14.00,2013-02-07 21:18:00,
2013-02-07 13:19:00,50.7,39.4,17.72,East,85,4.0,4.0,65,0.00,,---,0.35,VWS V14.00,2013-02-07 21:19:00,
2013-02-07 13:21:00,50.5,39.2,17.72,ESE,120,2.7,3.6,65,0.00,,---,0.35,VWS V14.00,2013-02-07 21:21:00,
2013-02-07 13:23:00,50.4,39.1,17.72,ESE,115,2.7,3.6,65,0.00,,---,0.35,VWS V14.00,2013-02-07 21:23:00,
2013-02-07 13:24:00,50.4,39.1,17.72,SE,138,3.1,4.9,65,0.00,,---,0.35,VWS V14.00,2013-02-07 21:24:00,
2013-02-07 13:26:00,50.2,38.9,17.72,SE,139,0.0,3.1,65,0.00,,---,0.35,VWS V14.00,2013-02-07 21:26:00,
2013-02-07 13:28:00,50.0,38.7,17.72,ESE,120,4.0,4.9,65,0.00,,---,0.35,VWS V14.00,2013-02-07 21:28:00,
2013-02-07 13:29:00,49.8,38.9,17.72,ESE,121,5.8,5.8,66,0.00,,---,0.35,VWS V14.00,2013-02-07 21:29:00,
2013-02-07 13:31:00,49.6,38.4,17.72,East,83,4.9,4.9,65,0.00,,---,0.35,VWS V14.00,2013-02-07 21:31:00,
2013-02-07 13:33:00,49.5,38.6,17.72,ESE,118,2.7,4.0,66,0.00,,---,0.35,VWS V14.00,2013-02-07 21:33:00,
2013-02-07 13:34:00,49.3,38.4,17.72,East,91,3.1,5.8,66,0.00,,---,0.35,VWS V14.00,2013-02-07 21:34:00,
2013-02-07 13:36:00,49.1,38.2,17.72,South,179,0.0,0.0,66,0.00,,---,0.35,VWS V14.00,2013-02-07 21:36:00,
2013-02-07 13:38:00,48.9,38.5,17.72,ESE,108,3.1,3.1,67,0.00,,---,0.35,VWS V14.00,2013-02-07 21:38:00,
2013-02-07 13:39:00,48.9,38.5,17.72,SE,128,3.1,3.1,67,0.00,,---,0.35,VWS V14.00,2013-02-07 21:39:00,
2013-02-07 13:41:00,49.1,39.8,17.72,ESE,112,0.0,2.7,70,0.00,,---,0.35,VWS V14.00,2013-02-07 21:41:00,
2013-02-07 13:43:00,49.1,39.8,17.72,ESE,108,4.0,4.0,70,0.00,,---,0.35,VWS V14.00,2013-02-07 21:43:00,
2013-02-07 13:44:00,49.1,39.8,17.72,South,184,2.2,4.0,70,0.00,,---,0.35,VWS V14.00,2013-02-07 21:44:00,
2013-02-07 13:46:00,49.1,39.8,17.72,SSE,166,0.0,3.6,70,0.00,,---,0.35,VWS V14.00,2013-02-07 21:46:00,
2013-02-07 13:48:00,48.9,39.9,17.72,ESE,118,3.1,4.9,71,0.00,,---,0.35,VWS V14.00,2013-02-07 21:48:00,
2013-02-07 13:49:00,48.9,39.9,17.72,SSE,163,5.4,5.4,71,0.00,,---,0.35,VWS V14.00,2013-02-07 21:49:00,
2013-02-07 13:51:00,48.7,39.8,17.72,South,179,3.6,4.0,71,0.00,,---,0.35,VWS V14.00,2013-02-07 21:51:00,
2013-02-07 13:53:00,48.6,39.6,17.72,South,187,4.0,6.3,71,0.00,,---,0.35,VWS V14.00,2013-02-07 21:53:00,
2013-02-07 13:54:00,48.4,39.1,17.72,SE,130,5.4,6.3,70,0.00,,---,0.35,VWS V14.00,2013-02-07 21:54:00,
2013-02-07 13:56:00,48.4,39.1,17.72,East,100,3.1,5.4,70,0.00,,---,0.35,VWS V14.00,2013-02-07 21:56:00,
2013-02-07 13:58:00,48.2,38.9,17.72,West,270,4.9,4.9,70,0.00,,---,0.35,VWS V14.00,2013-02-07 21:58:00,
2013-02-07 13:59:00,48.2,38.9,17.72,South,182,7.6,8.1,70,0.00,,---,0.35,VWS V14.00,2013-02-07 21:59:00,
2013-02-07 14:01:00,47.5,38.2,17.72,South,176,8.7,8.7,70,0.00,,---,0.35,VWS V14.00,2013-02-07 22:01:00,
2013-02-07 14:03:00,47.1,37.8,17.72,South,169,5.8,11.0,70,0.00,,---,0.35,VWS V14.00,2013-02-07 22:03:00,
2013-02-07 14:04:00,46.8,37.9,17.72,SSW,192,5.4,5.4,71,0.00,,---,0.35,VWS V14.00,2013-02-07 22:04:00,
2013-02-07 14:06:00,46.6,38.0,17.72,South,177,3.1,5.8,72,0.00,,---,0.35,VWS V14.00,2013-02-07 22:06:00,
2013-02-07 14:08:00,46.6,38.4,17.72,ENE,67,3.6,3.6,73,0.00,,---,0.35,VWS V14.00,2013-02-07 22:08:00,
2013-02-07 14:09:00,46.8,38.9,17.72,South,183,3.6,5.4,74,0.00,,---,0.35,VWS V14.00,2013-02-07 22:09:00,
2013-02-07 14:11:00,46.6,38.8,17.72,SSW,192,4.0,5.8,74,0.00,,---,0.35,VWS V14.00,2013-02-07 22:11:00,
2013-02-07 14:13:00,46.8,39.3,17.72,SSE,158,5.8,5.8,75,0.00,,---,0.35,VWS V14.00,2013-02-07 22:13:00,
2013-02-07 14:14:00,46.8,39.3,17.72,SE,131,3.1,3.1,75,0.00,,---,0.35,VWS V14.00,2013-02-07 22:14:00,
2013-02-07 14:16:00,46.9,39.8,17.72,SW,218,3.6,6.3,76,0.00,,---,0.35,VWS V14.00,2013-02-07 22:16:00,
2013-02-07 14:18:00,47.1,40.0,17.72,SE,138,3.1,6.3,76,0.00,,---,0.35,VWS V14.00,2013-02-07 22:18:00,
2013-02-07 14:19:00,47.1,40.0,17.72,South,176,3.6,7.6,76,0.00,,---,0.35,VWS V14.00,2013-02-07 22:19:00,
2013-02-07 14:21:00,47.1,39.6,17.72,SSE,162,4.0,4.5,75,0.00,,---,0.35,VWS V14.00,2013-02-07 22:21:00,
2013-02-07 14:23:00,47.1,39.6,17.72,SSE,165,3.6,4.0,75,0.00,,---,0.35,VWS V14.00,2013-02-07 22:23:00,
2013-02-07 14:24:00,47.3,39.8,17.72,South,177,3.1,3.1,75,0.00,,---,0.35,VWS V14.00,2013-02-07 22:24:00,
2013-02-07 14:26:00,47.3,39.8,17.72,SE,132,4.9,4.9,75,0.00,,---,0.35,VWS V14.00,2013-02-07 22:26:00,
2013-02-07 14:28:00,47.3,39.5,17.72,South,190,3.1,3.6,74,0.00,,---,0.35,VWS V14.00,2013-02-07 22:28:00,
2013-02-07 14:29:00,47.3,39.5,17.72,SSE,167,4.0,5.8,74,0.00,,---,0.35,VWS V14.00,2013-02-07 22:29:00,
2013-02-07 14:31:00,47.3,39.1,17.72,East,101,5.4,7.6,73,0.00,,---,0.35,VWS V14.00,2013-02-07 22:31:00,
2013-02-07 14:33:00,47.3,38.7,17.72,South,190,3.1,6.3,72,0.00,,---,0.35,VWS V14.00,2013-02-07 22:33:00,
2013-02-07 14:34:00,47.3,38.7,17.72,South,183,8.1,8.1,72,0.00,,---,0.35,VWS V14.00,2013-02-07 22:34:00,
2013-02-07 14:36:00,47.5,38.9,17.72,SSE,164,0.0,3.6,72,0.00,,---,0.35,VWS V14.00,2013-02-07 22:36:00,
2013-02-07 14:38:00,47.7,39.1,17.72,ESE,122,2.7,5.8,72,0.00,,---,0.35,VWS V14.00,2013-02-07 22:38:00,
2013-02-07 14:39:00,47.8,39.3,17.72,ESE,110,2.2,3.6,72,0.00,,---,0.35,VWS V14.00,2013-02-07 22:39:00,
2013-02-07 14:41:00,48.2,39.6,17.72,SSW,196,4.0,4.0,72,0.00,,---,0.35,VWS V14.00,2013-02-07 22:41:00,
2013-02-07 14:43:00,48.4,39.8,17.72,ESE,123,4.9,4.9,72,0.00,,---,0.35,VWS V14.00,2013-02-07 22:43:00,
2013-02-07 14:44:00,48.6,40.0,17.72,East,92,3.1,3.1,72,0.00,,---,0.35,VWS V14.00,2013-02-07 22:44:00,
2013-02-07 14:47:00,48.7,40.1,17.72,ESE,116,2.2,3.1,72,0.00,,---,0.35,VWS V14.00,2013-02-07 22:47:00,
2013-02-07 14:48:00,48.9,39.9,17.72,SW,218,3.6,5.4,71,0.00,,---,0.35,VWS V14.00,2013-02-07 22:48:00,
2013-02-07 14:49:00,48.9,39.9,17.72,WSW,257,3.1,5.4,71,0.00,,---,0.35,VWS V14.00,2013-02-07 22:49:00,
2013-02-07 14:52:00,48.9,39.2,17.72,ESE,117,3.6,4.9,69,0.00,,---,0.35,VWS V14.00,2013-02-07 22:52:00,
2013-02-07 14:53:00,49.1,39.0,17.72,ESE,118,2.7,2.7,68,0.00,,---,0.35,VWS V14.00,2013-02-07 22:53:00,
2013-02-07 14:54:00,49.1,39.0,17.72,ESE,118,2.7,2.7,68,0.00,,---,0.35,VWS V14.00,2013-02-07 22:54:00,
2013-02-07 14:57:00,48.9,38.1,17.72,ENE,74,3.1,3.1,66,0.00,,---,0.35,VWS V14.00,2013-02-07 22:57:00,
2013-02-07 14:59:00,49.1,38.2,17.72,SE,144,0.0,3.6,66,0.00,,---,0.35,VWS V14.00,2013-02-07 22:59:00,
2013-02-07 15:02:00,49.1,38.6,17.72,East,79,2.2,4.9,67,0.00,,---,0.35,VWS V14.00,2013-02-07 23:02:00,
2013-02-07 15:04:00,48.9,38.1,17.72,South,181,3.6,3.6,66,0.00,,---,0.35,VWS V14.00,2013-02-07 23:04:00,
2013-02-07 15:07:00,48.9,38.5,17.72,SE,146,0.0,0.0,67,0.00,,---,0.35,VWS V14.00,2013-02-07 23:07:00,
2013-02-07 15:09:00,48.9,38.5,17.72,SE,145,2.7,4.0,67,0.00,,---,0.35,VWS V14.00,2013-02-07 23:09:00,
2013-02-07 15:12:00,48.7,38.3,17.72,South,184,3.1,4.0,67,0.00,,---,0.35,VWS V14.00,2013-02-07 23:12:00,
2013-02-07 15:14:00,48.6,37.7,17.72,South,171,3.1,3.6,66,0.00,,---,0.35,VWS V14.00,2013-02-07 23:14:00,
2013-02-07 15:17:00,48.2,37.4,17.72,SE,126,0.0,4.0,66,0.00,,---,0.35,VWS V14.00,2013-02-07 23:17:00,
2013-02-07 15:19:00,48.2,37.4,17.72,South,176,3.1,3.6,66,0.00,,---,0.35,VWS V14.00,2013-02-07 23:19:00,
2013-02-07 15:20:00,48.2,37.4,17.72,SSW,193,3.1,3.1,66,0.00,,---,0.35,VWS V14.00,2013-02-07 23:20:00,
2013-02-07 15:22:00,47.8,37.4,17.72,South,184,2.7,2.7,67,0.00,,---,0.35,VWS V14.00,2013-02-07 23:22:00,
2013-02-07 15:24:00,47.7,37.6,17.72,SW,215,2.7,3.1,68,0.00,,---,0.35,VWS V14.00,2013-02-07 23:24:00,
2013-02-07 15:25:00,47.7,37.6,17.72,South,174,2.7,4.0,68,0.00,,---,0.35,VWS V14.00,2013-02-07 23:25:00,
2013-02-07 15:27:00,47.1,37.1,17.72,SSW,208,0.0,4.0,68,0.00,,---,0.35,VWS V14.00,2013-02-07 23:27:00,
2013-02-07 15:29:00,46.8,37.5,17.72,South,177,6.3,6.3,70,0.00,,---,0.35,VWS V14.00,2013-02-07 23:29:00,
2013-02-07 15:30:00,46.6,37.7,17.72,SSW,193,4.9,4.9,71,0.00,,---,0.35,VWS V14.00,2013-02-07 23:30:00,
2013-02-07 15:32:00,45.9,37.0,17.72,South,178,5.8,5.8,71,0.00,,---,0.35,VWS V14.00,2013-02-07 23:32:00,
2013-02-07 15:34:00,45.3,37.2,17.72,SSE,153,4.0,6.3,73,0.00,,---,0.35,VWS V14.00,2013-02-07 23:34:00,
2013-02-07 15:35:00,45.1,37.0,17.72,SSW,202,3.1,4.0,73,0.00,,---,0.35,VWS V14.00,2013-02-07 23:35:00,
2013-02-07 15:37:00,44.8,36.7,17.72,South,189,3.1,4.0,73,0.00,,---,0.35,VWS V14.00,2013-02-07 23:37:00,
2013-02-07 15:39:00,44.6,36.8,17.72,SSW,192,3.1,3.1,74,0.00,,---,0.35,VWS V14.00,2013-02-07 23:39:00,
2013-02-07 15:40:00,44.4,37.0,17.72,SSE,154,2.7,5.4,75,0.00,,---,0.35,VWS V14.00,2013-02-07 23:40:00,
2013-02-07 15:42:00,44.2,37.2,17.72,SE,129,2.2,2.2,76,0.00,,---,0.35,VWS V14.00,2013-02-07 23:42:00,
2013-02-07 15:44:00,44.1,37.0,17.72,South,182,0.0,0.0,76,0.00,,---,0.35,VWS V14.00,2013-02-07 23:44:00,
2013-02-07 15:45:00,44.1,37.3,17.72,SSE,166,0.0,0.0,77,0.00,,---,0.35,VWS V14.00,2013-02-07 23:45:00,
2013-02-07 15:47:00,44.1,37.7,17.72,South,170,0.0,0.0,78,0.04,,---,0.39,VWS V14.00,2013-02-07 23:47:00,
2013-02-07 15:49:00,43.9,37.5,17.72,SE,142,3.1,5.4,78,0.04,,---,0.39,VWS V14.00,2013-02-07 23:49:00,
2013-02-07 15:50:00,43.9,37.5,17.72,SE,133,2.7,2.7,78,0.04,,---,0.39,VWS V14.00,2013-02-07 23:50:00,
2013-02-07 15:52:00,43.9,37.8,17.72,ESE,105,0.0,3.1,79,0.04,,---,0.39,VWS V14.00,2013-02-07 23:52:00,
2013-02-07 15:54:00,43.9,37.8,17.72,ESE,121,0.0,2.7,79,0.04,,---,0.39,VWS V14.00,2013-02-07 23:54:00,
2013-02-07 15:55:00,44.1,38.3,17.72,ESE,122,0.0,0.0,80,0.04,,---,0.39,VWS V14.00,2013-02-07 23:55:00,
2013-02-07 15:57:00,44.2,38.5,17.72,ESE,112,0.0,0.0,80,0.04,,---,0.39,VWS V14.00,2013-02-07 23:57:00,
2013-02-07 15:59:00,44.4,39.0,17.72,ESE,111,0.0,0.0,81,0.04,,---,0.39,VWS V14.00,2013-02-07 23:59:00,
2013-02-07 16:00:00,44.6,38.8,17.72,ESE,111,0.0,0.0,80,0.04,,---,0.39,VWS V14.00,2013-02-08 00:00:00,
2013-02-07 16:02:00,45.0,39.5,17.72,ESE,111,0.0,0.0,81,0.04,,---,0.39,VWS V14.00,2013-02-08 00:02:00,
2013-02-07 16:04:00,45.3,39.8,17.72,South,173,0.0,0.0,81,0.04,,---,0.39,VWS V14.00,2013-02-08 00:04:00,
2013-02-07 16:05:00,45.7,40.2,17.72,South,172,0.0,0.0,81,0.04,,---,0.39,VWS V14.00,2013-02-08 00:05:00,
2013-02-07 16:07:00,46.0,40.9,17.72,SE,133,0.0,0.0,82,0.04,,---,0.39,VWS V14.00,2013-02-08 00:07:00,
2013-02-07 16:09:00,46.4,40.9,17.72,South,179,0.0,0.0,81,0.04,,---,0.39,VWS V14.00,2013-02-08 00:09:00,
2013-02-07 16:10:00,46.6,41.1,17.72,ESE,123,0.0,0.0,81,0.04,,---,0.39,VWS V14.00,2013-02-08 00:10:00,
2013-02-07 16:12:00,46.6,41.1,17.72,SSE,147,0.0,0.0,81,0.04,,---,0.39,VWS V14.00,2013-02-08 00:12:00,
2013-02-07 16:14:00,46.6,40.8,17.72,SSE,168,3.6,3.6,80,0.04,,---,0.39,VWS V14.00,2013-02-08 00:14:00,
2013-02-07 16:15:00,46.6,40.8,17.72,SE,130,0.0,0.0,80,0.04,,---,0.39,VWS V14.00,2013-02-08 00:15:00,
2013-02-07 16:17:00,46.6,40.8,17.72,East,91,4.0,4.0,80,0.04,,---,0.39,VWS V14.00,2013-02-08 00:17:00,
2013-02-07 16:19:00,46.6,40.8,17.72,East,79,2.2,4.0,80,0.04,,---,0.39,VWS V14.00,2013-02-08 00:19:00,
2013-02-07 16:20:00,46.4,40.6,17.72,ESE,114,3.6,4.5,80,0.04,,---,0.39,VWS V14.00,2013-02-08 00:20:00,
2013-02-07 16:22:00,46.0,39.9,17.72,East,86,2.7,4.0,79,0.04,,---,0.39,VWS V14.00,2013-02-08 00:22:00,
2013-02-07 16:24:00,46.0,39.9,17.72,SE,144,0.0,2.2,79,0.04,,---,0.39,VWS V14.00,2013-02-08 00:24:00,
2013-02-07 16:25:00,46.0,39.9,17.72,ENE,71,0.0,0.0,79,0.04,,---,0.39,VWS V14.00,2013-02-08 00:25:00,
2013-02-07 16:27:00,45.9,39.7,17.72,ESE,108,0.0,0.0,79,0.04,,---,0.39,VWS V14.00,2013-02-08 00:27:00,
2013-02-07 16:29:00,45.9,40.0,17.72,SE,127,0.0,0.0,80,0.04,,---,0.39,VWS V14.00,2013-02-08 00:29:00,
2013-02-07 16:30:00,45.9,40.0,17.72,East,98,2.7,3.1,80,0.04,,---,0.39,VWS V14.00,2013-02-08 00:30:00,
2013-02-07 16:32:00,45.9,40.0,17.72,ESE,123,3.1,3.1,80,0.04,,---,0.39,VWS V14.00,2013-02-08 00:32:00,
2013-02-07 16:34:00,45.9,40.0,17.72,SE,125,3.1,3.1,80,0.04,,---,0.39,VWS V14.00,2013-02-08 00:34:00,
2013-02-07 16:35:00,45.7,39.9,17.72,SE,139,0.0,2.7,80,0.04,,---,0.39,VWS V14.00,2013-02-08 00:35:00,
2013-02-07 16:37:00,45.7,40.2,17.72,East,93,0.0,0.0,81,0.04,,---,0.39,VWS V14.00,2013-02-08 00:37:00,
2013-02-07 16:39:00,45.5,40.0,17.72,East,89,0.0,4.0,81,0.04,,---,0.39,VWS V14.00,2013-02-08 00:39:00,
2013-02-07 16:40:00,45.5,40.0,17.72,East,91,3.6,3.6,81,0.04,,---,0.39,VWS V14.00,2013-02-08 00:40:00,
2013-02-07 16:42:00,45.5,40.0,17.72,ESE,118,0.0,0.0,81,0.04,,---,0.39,VWS V14.00,2013-02-08 00:42:00,
2013-02-07 16:44:00,45.5,40.0,17.72,East,100,0.0,2.7,81,0.04,,---,0.39,VWS V14.00,2013-02-08 00:44:00,
2013-02-07 16:45:00,45.5,40.0,17.72,East,100,0.0,0.0,81,0.04,,---,0.39,VWS V14.00,2013-02-08 00:45:00,
2013-02-07 16:47:00,45.5,40.3,17.72,ESE,109,3.1,3.6,82,0.00,,---,0.39,VWS V14.00,2013-02-08 00:47:00,
2013-02-07 16:49:00,45.5,40.3,17.72,East,98,0.0,0.0,82,0.00,,---,0.39,VWS V14.00,2013-02-08 00:49:00,
2013-02-07 16:50:00,45.5,40.3,17.72,East,88,0.0,0.0,82,0.00,,---,0.39,VWS V14.00,2013-02-08 00:50:00,
2013-02-07 16:53:00,45.3,40.2,17.72,East,94,2.7,5.4,82,0.00,,---,0.39,VWS V14.00,2013-02-08 00:53:00,
2013-02-07 16:54:00,45.3,40.2,17.72,East,92,2.7,4.0,82,0.00,,---,0.39,VWS V14.00,2013-02-08 00:54:00,
2013-02-07 16:55:00,45.3,40.2,17.72,East,101,2.7,3.6,82,0.00,,---,0.39,VWS V14.00,2013-02-08 00:55:00,
2013-02-07 16:58:00,45.1,40.0,17.72,East,87,4.9,4.9,82,0.00,,---,0.39,VWS V14.00,2013-02-08 00:58:00,
2013-02-07 16:59:00,44.8,39.6,17.72,ESE,123,2.7,2.7,82,0.00,,---,0.39,VWS V14.00,2013-02-08 00:59:00,
2013-02-07 17:00:00,44.8,39.6,17.72,East,86,3.6,3.6,82,0.00,,---,0.39,VWS V14.00,2013-02-08 01:00:00,
2013-02-07 17:03:00,44.6,39.5,17.72,East,88,3.1,3.1,82,0.00,,---,0.39,VWS V14.00,2013-02-08 01:03:00,
2013-02-07 17:04:00,44.2,39.1,17.72,ENE,65,2.7,3.6,82,0.00,,---,0.39,VWS V14.00,2013-02-08 01:04:00,
2013-02-07 17:05:00,44.2,39.1,17.72,ESE,118,2.7,4.0,82,0.00,,---,0.39,VWS V14.00,2013-02-08 01:05:00,
2013-02-07 17:08:00,44.1,38.9,17.72,SE,130,2.2,3.1,82,0.00,,---,0.39,VWS V14.00,2013-02-08 01:08:00,
2013-02-07 17:09:00,43.9,38.8,17.72,ESE,120,3.1,3.1,82,0.00,,---,0.39,VWS V14.00,2013-02-08 01:09:00,
2013-02-07 17:10:00,43.7,38.6,17.72,ESE,120,0.0,3.1,82,0.00,,---,0.39,VWS V14.00,2013-02-08 01:10:00,
2013-02-07 17:13:00,43.5,38.4,17.72,East,95,2.2,2.2,82,0.00,,---,0.39,VWS V14.00,2013-02-08 01:13:00,
2013-02-07 17:14:00,43.5,38.4,17.72,SE,136,0.0,0.0,82,0.00,,---,0.39,VWS V14.00,2013-02-08 01:14:00,
2013-02-07 17:15:00,43.3,38.2,17.72,ESE,109,0.0,0.0,82,0.00,,---,0.39,VWS V14.00,2013-02-08 01:15:00,
2013-02-07 17:18:00,43.3,38.2,17.72,ESE,109,0.0,0.0,82,0.00,,---,0.39,VWS V14.00,2013-02-08 01:18:00,
2013-02-07 17:19:00,43.2,38.0,17.72,ENE,71,0.0,0.0,82,0.00,,---,0.39,VWS V14.00,2013-02-08 01:19:00,
2013-02-07 17:20:00,43.2,38.4,17.72,East,82,0.0,0.0,83,0.00,,---,0.39,VWS V14.00,2013-02-08 01:20:00,
2013-02-07 17:23:00,43.0,38.2,17.72,East,98,0.0,0.0,83,0.00,,---,0.39,VWS V14.00,2013-02-08 01:23:00,
2013-02-07 17:24:00,43.0,38.2,17.72,East,88,2.7,2.7,83,0.00,,---,0.39,VWS V14.00,2013-02-08 01:24:00,
2013-02-07 17:25:00,43.0,38.2,17.72,ENE,59,2.2,3.6,83,0.00,,---,0.39,VWS V14.00,2013-02-08 01:25:00,
2013-02-07 17:28:00,43.0,38.2,17.72,East,82,0.0,3.1,83,0.00,,---,0.39,VWS V14.00,2013-02-08 01:28:00,
2013-02-07 17:29:00,43.0,38.5,17.72,East,96,0.0,0.0,84,0.00,,---,0.39,VWS V14.00,2013-02-08 01:29:00,
2013-02-07 17:30:00,42.8,38.3,17.72,East,96,0.0,0.0,84,0.00,,---,0.39,VWS V14.00,2013-02-08 01:30:00,
2013-02-07 17:33:00,42.8,38.3,17.72,East,96,0.0,0.0,84,0.00,,---,0.39,VWS V14.00,2013-02-08 01:33:00,
2013-02-07 17:34:00,42.8,38.3,17.72,East,96,0.0,0.0,84,0.00,,---,0.39,VWS V14.00,2013-02-08 01:34:00,
2013-02-07 17:35:00,42.8,38.3,17.72,East,96,0.0,0.0,84,0.00,,---,0.39,VWS V14.00,2013-02-08 01:35:00,
2013-02-07 17:38:00,42.8,38.3,17.72,East,97,0.0,0.0,84,0.00,,---,0.39,VWS V14.00,2013-02-08 01:38:00,
2013-02-07 17:39:00,42.8,38.3,17.72,East,97,0.0,0.0,84,0.00,,---,0.39,VWS V14.00,2013-02-08 01:39:00,
2013-02-07 17:40:00,42.8,38.6,17.72,East,97,0.0,0.0,85,0.00,,---,0.39,VWS V14.00,2013-02-08 01:40:00,
2013-02-07 17:43:00,43.0,38.8,17.72,East,97,0.0,0.0,85,0.00,,---,0.39,VWS V14.00,2013-02-08 01:43:00,
2013-02-07 17:44:00,43.0,38.8,17.72,East,97,0.0,0.0,85,0.00,,---,0.39,VWS V14.00,2013-02-08 01:44:00,
2013-02-07 17:45:00,43.0,38.8,17.72,East,97,0.0,0.0,85,0.00,,---,0.39,VWS V14.00,2013-02-08 01:45:00,
2013-02-07 17:46:00,43.0,38.8,17.72,SE,135,2.2,2.2,85,0.00,,---,0.39,VWS V14.00,2013-02-08 01:46:00,
2013-02-07 17:48:00,43.2,39.3,17.72,SE,128,2.2,4.0,86,0.00,,---,0.39,VWS V14.00,2013-02-08 01:48:00,
2013-02-07 17:49:00,43.2,39.3,17.72,ESE,121,2.7,2.7,86,0.00,,---,0.39,VWS V14.00,2013-02-08 01:49:00,
2013-02-07 17:50:00,43.2,39.3,17.72,ESE,116,0.0,2.7,86,0.00,,---,0.39,VWS V14.00,2013-02-08 01:50:00,
2013-02-07 17:51:00,43.2,39.3,17.72,ESE,115,2.7,2.7,86,0.00,,---,0.39,VWS V14.00,2013-02-08 01:51:00,
2013-02-07 17:53:00,43.2,39.3,17.72,ESE,117,0.0,0.0,86,0.00,,---,0.39,VWS V14.00,2013-02-08 01:53:00,
2013-02-07 17:54:00,43.2,39.3,17.72,ESE,119,0.0,0.0,86,0.00,,---,0.39,VWS V14.00,2013-02-08 01:54:00,
2013-02-07 17:55:00,43.3,39.4,17.72,East,97,0.0,0.0,86,0.00,,---,0.39,VWS V14.00,2013-02-08 01:55:00,
2013-02-07 17:56:00,43.3,39.4,17.72,ESE,113,0.0,0.0,86,0.00,,---,0.39,VWS V14.00,2013-02-08 01:56:00,
2013-02-07 17:58:00,43.3,39.7,17.72,ESE,117,0.0,0.0,87,0.00,,---,0.39,VWS V14.00,2013-02-08 01:58:00,
2013-02-07 17:59:00,43.3,39.7,17.72,ESE,106,2.7,2.7,87,0.00,,---,0.39,VWS V14.00,2013-02-08 01:59:00,
2013-02-07 18:00:00,43.3,39.7,17.72,ESE,121,2.2,2.2,87,0.00,,---,0.39,VWS V14.00,2013-02-08 02:00:00,
2013-02-07 18:01:00,43.3,39.7,17.72,ESE,111,2.2,2.2,87,0.00,,---,0.39,VWS V14.00,2013-02-08 02:01:00,
2013-02-07 18:03:00,43.3,39.7,17.72,South,176,0.0,0.0,87,0.00,,---,0.39,VWS V14.00,2013-02-08 02:03:00,
2013-02-07 18:04:00,43.3,39.7,17.72,South,176,0.0,0.0,87,0.00,,---,0.39,VWS V14.00,2013-02-08 02:04:00,
2013-02-07 18:05:00,43.3,39.7,17.72,South,176,0.0,0.0,87,0.00,,---,0.39,VWS V14.00,2013-02-08 02:05:00,
2013-02-07 18:06:00,43.3,39.7,17.72,South,176,0.0,0.0,87,0.00,,---,0.39,VWS V14.00,2013-02-08 02:06:00,
2013-02-07 18:08:00,43.3,39.7,17.72,South,176,0.0,0.0,87,0.00,,---,0.39,VWS V14.00,2013-02-08 02:08:00,
2013-02-07 18:10:00,43.2,39.6,17.72,South,176,0.0,0.0,87,0.00,,---,0.39,VWS V14.00,2013-02-08 02:10:00,
2013-02-07 18:11:00,43.2,39.6,17.72,ESE,111,0.0,0.0,87,0.00,,---,0.39,VWS V14.00,2013-02-08 02:11:00,
2013-02-07 18:13:00,43.2,39.6,17.72,ESE,114,0.0,0.0,87,0.00,,---,0.39,VWS V14.00,2013-02-08 02:13:00,
2013-02-07 18:15:00,43.3,39.7,17.72,SE,124,0.0,0.0,87,0.00,,---,0.39,VWS V14.00,2013-02-08 02:15:00,
2013-02-07 18:16:00,43.5,39.9,17.72,SE,132,0.0,0.0,87,0.00,,---,0.39,VWS V14.00,2013-02-08 02:16:00,
2013-02-07 18:18:00,43.7,40.4,17.72,SE,132,0.0,0.0,88,0.00,,---,0.39,VWS V14.00,2013-02-08 02:18:00,
2013-02-07 18:20:00,43.9,40.6,17.72,SE,132,0.0,0.0,88,0.00,,---,0.39,VWS V14.00,2013-02-08 02:20:00,
2013-02-07 18:21:00,43.9,40.6,17.72,SE,132,0.0,0.0,88,0.00,,---,0.39,VWS V14.00,2013-02-08 02:21:00,
2013-02-07 18:23:00,44.1,40.7,17.72,ESE,123,0.0,0.0,88,0.00,,---,0.39,VWS V14.00,2013-02-08 02:23:00,
2013-02-07 18:25:00,44.1,40.7,17.72,SE,138,0.0,0.0,88,0.00,,---,0.39,VWS V14.00,2013-02-08 02:25:00,
2013-02-07 18:26:00,44.2,40.9,17.72,SE,138,0.0,0.0,88,0.00,,---,0.39,VWS V14.00,2013-02-08 02:26:00,
2013-02-07 18:28:00,44.2,40.9,17.72,SE,138,0.0,0.0,88,0.00,,---,0.39,VWS V14.00,2013-02-08 02:28:00,
2013-02-07 18:30:00,44.2,40.9,17.72,SE,138,0.0,0.0,88,0.00,,---,0.39,VWS V14.00,2013-02-08 02:30:00,
2013-02-07 18:31:00,44.4,41.1,17.72,SE,138,0.0,0.0,88,0.00,,---,0.39,VWS V14.00,2013-02-08 02:31:00,
2013-02-07 18:33:00,44.4,41.4,17.72,SE,138,0.0,0.0,89,0.00,,---,0.39,VWS V14.00,2013-02-08 02:33:00,
2013-02-07 18:35:00,44.4,41.4,17.72,SE,138,0.0,0.0,89,0.00,,---,0.39,VWS V14.00,2013-02-08 02:35:00,
2013-02-07 18:36:00,44.4,41.4,17.72,SE,138,0.0,0.0,89,0.00,,---,0.39,VWS V14.00,2013-02-08 02:36:00,
2013-02-07 18:38:00,44.2,40.9,17.72,NE,50,0.0,0.0,88,0.00,,---,0.39,VWS V14.00,2013-02-08 02:38:00,
2013-02-07 18:40:00,44.1,40.7,17.72,NNE,26,0.0,0.0,88,0.00,,---,0.39,VWS V14.00,2013-02-08 02:40:00,
2013-02-07 18:41:00,44.1,40.7,17.72,NNE,18,0.0,0.0,88,0.00,,---,0.39,VWS V14.00,2013-02-08 02:41:00,
2013-02-07 18:43:00,44.1,40.7,17.72,NNE,18,0.0,0.0,88,0.00,,---,0.39,VWS V14.00,2013-02-08 02:43:00,
2013-02-07 18:45:00,44.1,40.7,17.72,NNE,18,0.0,0.0,88,0.00,,---,0.39,VWS V14.00,2013-02-08 02:45:00,
2013-02-07 18:46:00,44.1,40.7,17.72,NNE,18,0.0,0.0,88,0.00,,---,0.39,VWS V14.00,2013-02-08 02:46:00,
2013-02-07 18:47:00,44.1,40.7,17.72,NNE,18,0.0,0.0,88,0.00,,---,0.39,VWS V14.00,2013-02-08 02:47:00,
2013-02-07 18:48:00,44.1,40.7,17.72,NNE,18,0.0,0.0,88,0.00,,---,0.39,VWS V14.00,2013-02-08 02:48:00,
2013-02-07 18:50:00,44.1,41.0,17.72,NNE,18,0.0,0.0,89,0.00,,---,0.39,VWS V14.00,2013-02-08 02:50:00,
2013-02-07 18:51:00,43.9,40.6,17.72,NNE,18,0.0,0.0,88,0.00,,---,0.39,VWS V14.00,2013-02-08 02:51:00,
2013-02-07 18:52:00,43.9,40.6,17.72,NNE,18,0.0,0.0,88,0.00,,---,0.39,VWS V14.00,2013-02-08 02:52:00,
2013-02-07 18:53:00,43.7,40.4,17.72,NNE,18,0.0,0.0,88,0.00,,---,0.39,VWS V14.00,2013-02-08 02:53:00,
2013-02-07 18:55:00,43.5,40.2,17.72,NNE,18,0.0,0.0,88,0.00,,---,0.39,VWS V14.00,2013-02-08 02:55:00,
2013-02-07 18:56:00,43.5,40.2,17.72,NNE,18,0.0,0.0,88,0.04,,---,0.43,VWS V14.00,2013-02-08 02:56:00,
2013-02-07 18:57:00,43.5,40.2,17.72,NNE,18,0.0,0.0,88,0.04,,---,0.43,VWS V14.00,2013-02-08 02:57:00,
2013-02-07 18:58:00,43.3,40.0,17.72,NNE,18,0.0,0.0,88,0.04,,---,0.43,VWS V14.00,2013-02-08 02:58:00,
2013-02-07 19:00:00,43.5,40.5,17.72,WNW,288,0.0,0.0,89,0.04,,---,0.43,VWS V14.00,2013-02-08 03:00:00,
2013-02-07 19:01:00,43.3,40.3,17.72,West,259,0.0,2.7,89,0.04,,---,0.43,VWS V14.00,2013-02-08 03:01:00,
2013-02-07 19:02:00,43.3,40.3,17.72,West,259,0.0,0.0,89,0.04,,---,0.43,VWS V14.00,2013-02-08 03:02:00,
2013-02-07 19:03:00,43.5,40.5,17.72,SW,231,4.0,4.0,89,0.04,,---,0.43,VWS V14.00,2013-02-08 03:03:00,
2013-02-07 19:05:00,43.5,40.8,17.72,WSW,247,0.0,2.2,90,0.04,,---,0.43,VWS V14.00,2013-02-08 03:05:00,
2013-02-07 19:06:00,43.5,40.8,17.72,WSW,239,0.0,2.2,90,0.04,,---,0.43,VWS V14.00,2013-02-08 03:06:00,
2013-02-07 19:07:00,43.5,40.8,17.72,WSW,240,3.1,3.1,90,0.04,,---,0.43,VWS V14.00,2013-02-08 03:07:00,
2013-02-07 19:09:00,43.5,40.8,17.72,South,182,0.0,0.0,90,0.04,,---,0.43,VWS V14.00,2013-02-08 03:09:00,
2013-02-07 19:10:00,43.5,40.8,17.72,South,170,0.0,0.0,90,0.04,,---,0.43,VWS V14.00,2013-02-08 03:10:00,
2013-02-07 19:11:00,43.5,40.8,17.72,SSE,153,0.0,0.0,90,0.04,,---,0.43,VWS V14.00,2013-02-08 03:11:00,
2013-02-07 19:12:00,43.5,40.8,17.72,ESE,107,0.0,0.0,90,0.08,,---,0.47,VWS V14.00,2013-02-08 03:12:00,
2013-02-07 19:14:00,43.7,41.0,17.72,East,101,2.2,2.2,90,0.08,,---,0.47,VWS V14.00,2013-02-08 03:14:00,
2013-02-07 19:15:00,43.5,40.8,17.72,East,101,0.0,0.0,90,0.08,,---,0.47,VWS V14.00,2013-02-08 03:15:00,
2013-02-07 19:16:00,43.5,40.8,17.72,East,93,0.0,0.0,90,0.08,,---,0.47,VWS V14.00,2013-02-08 03:16:00,
2013-02-07 19:17:00,43.5,40.8,17.72,ENE,64,0.0,0.0,90,0.08,,---,0.47,VWS V14.00,2013-02-08 03:17:00,
2013-02-07 19:19:00,43.3,40.6,17.72,ENE,64,0.0,0.0,90,0.08,,---,0.47,VWS V14.00,2013-02-08 03:19:00,
2013-02-07 19:20:00,43.2,40.4,17.72,ENE,64,0.0,0.0,90,0.08,,---,0.47,VWS V14.00,2013-02-08 03:20:00,
2013-02-07 19:21:00,43.2,40.4,17.72,ENE,64,0.0,2.7,90,0.08,,---,0.47,VWS V14.00,2013-02-08 03:21:00,
2013-02-07 19:22:00,43.0,40.2,17.72,ENE,64,0.0,0.0,90,0.08,,---,0.47,VWS V14.00,2013-02-08 03:22:00,
2013-02-07 19:24:00,43.0,40.2,17.72,East,88,3.1,3.1,90,0.08,,---,0.47,VWS V14.00,2013-02-08 03:24:00,
2013-02-07 19:25:00,43.0,40.2,17.72,East,81,0.0,0.0,90,0.08,,---,0.47,VWS V14.00,2013-02-08 03:25:00,
2013-02-07 19:26:00,43.0,40.2,17.72,East,79,0.0,0.0,90,0.08,,---,0.47,VWS V14.00,2013-02-08 03:26:00,
2013-02-07 19:27:00,43.0,40.2,17.72,East,79,0.0,0.0,90,0.08,,---,0.47,VWS V14.00,2013-02-08 03:27:00,
2013-02-07 19:29:00,43.2,40.7,17.72,East,79,0.0,0.0,91,0.08,,---,0.47,VWS V14.00,2013-02-08 03:29:00,
2013-02-07 19:30:00,43.2,40.7,17.72,East,79,0.0,0.0,91,0.08,,---,0.47,VWS V14.00,2013-02-08 03:30:00,
2013-02-07 19:31:00,43.2,40.7,17.72,East,79,0.0,0.0,91,0.08,,---,0.47,VWS V14.00,2013-02-08 03:31:00,
2013-02-07 19:32:00,43.2,40.7,17.72,East,79,0.0,0.0,91,0.08,,---,0.47,VWS V14.00,2013-02-08 03:32:00,
2013-02-07 19:34:00,43.2,40.7,17.72,East,101,0.0,0.0,91,0.08,,---,0.47,VWS V14.00,2013-02-08 03:34:00,
2013-02-07 19:35:00,43.2,40.7,17.72,ESE,106,0.0,0.0,91,0.08,,---,0.47,VWS V14.00,2013-02-08 03:35:00,
2013-02-07 19:36:00,43.2,40.7,17.72,ESE,106,0.0,0.0,91,0.08,,---,0.47,VWS V14.00,2013-02-08 03:36:00,
2013-02-07 19:37:00,43.2,40.7,17.72,ESE,106,0.0,0.0,91,0.08,,---,0.47,VWS V14.00,2013-02-08 03:37:00,
2013-02-07 19:39:00,43.2,40.7,17.72,ESE,106,0.0,0.0,91,0.08,,---,0.47,VWS V14.00,2013-02-08 03:39:00,
2013-02-07 19:40:00,43.2,40.7,17.72,ESE,106,0.0,0.0,91,0.08,,---,0.47,VWS V14.00,2013-02-08 03:40:00,
2013-02-07 19:41:00,43.2,40.7,17.72,ESE,106,0.0,0.0,91,0.08,,---,0.47,VWS V14.00,2013-02-08 03:41:00,
2013-02-07 19:42:00,43.2,40.7,17.72,ESE,106,0.0,0.0,91,0.08,,---,0.47,VWS V14.00,2013-02-08 03:42:00,
2013-02-07 19:44:00,43.3,40.9,17.72,ESE,106,0.0,0.0,91,0.08,,---,0.47,VWS V14.00,2013-02-08 03:44:00,
2013-02-07 19:45:00,43.3,40.9,17.72,ESE,106,0.0,0.0,91,0.08,,---,0.47,VWS V14.00,2013-02-08 03:45:00,
2013-02-07 19:46:00,43.3,40.9,17.72,ESE,106,0.0,0.0,91,0.08,,---,0.47,VWS V14.00,2013-02-08 03:46:00,
2013-02-07 19:47:00,43.3,40.9,17.72,ESE,106,0.0,0.0,91,0.08,,---,0.47,VWS V14.00,2013-02-08 03:47:00,
2013-02-07 19:49:00,43.3,40.9,17.72,ESE,106,0.0,0.0,91,0.08,,---,0.47,VWS V14.00,2013-02-08 03:49:00,
2013-02-07 19:50:00,43.3,40.9,17.72,ESE,106,0.0,0.0,91,0.08,,---,0.47,VWS V14.00,2013-02-08 03:50:00,
2013-02-07 19:51:00,43.3,40.9,17.72,ESE,106,0.0,0.0,91,0.08,,---,0.47,VWS V14.00,2013-02-08 03:51:00,
2013-02-07 19:52:00,43.5,41.1,17.72,ESE,106,0.0,0.0,91,0.08,,---,0.47,VWS V14.00,2013-02-08 03:52:00,
2013-02-07 19:54:00,43.3,40.9,17.72,ENE,68,0.0,0.0,91,0.08,,---,0.47,VWS V14.00,2013-02-08 03:54:00,
2013-02-07 19:55:00,43.3,40.9,17.72,ENE,68,0.0,0.0,91,0.08,,---,0.47,VWS V14.00,2013-02-08 03:55:00,
2013-02-07 19:56:00,43.3,40.9,17.72,ENE,68,0.0,0.0,91,0.08,,---,0.47,VWS V14.00,2013-02-08 03:56:00,
2013-02-07 19:57:00,43.0,40.5,17.72,ENE,68,0.0,0.0,91,0.04,,---,0.47,VWS V14.00,2013-02-08 03:57:00,
2013-02-07 19:59:00,42.8,40.4,17.72,ENE,60,0.0,0.0,91,0.04,,---,0.47,VWS V14.00,2013-02-08 03:59:00,
2013-02-07 20:00:00,42.8,40.4,17.72,ENE,58,0.0,0.0,91,0.04,,---,0.47,VWS V14.00,2013-02-08 04:00:00,
2013-02-07 20:01:00,42.8,40.4,17.72,ENE,58,0.0,0.0,91,0.04,,---,0.47,VWS V14.00,2013-02-08 04:01:00,
2013-02-07 20:02:00,42.6,40.2,17.72,ENE,58,0.0,0.0,91,0.04,,---,0.47,VWS V14.00,2013-02-08 04:02:00,
2013-02-07 20:04:00,42.4,40.0,17.72,ENE,58,0.0,0.0,91,0.04,,---,0.47,VWS V14.00,2013-02-08 04:04:00,
2013-02-07 20:05:00,42.4,40.0,17.72,ENE,58,0.0,0.0,91,0.04,,---,0.47,VWS V14.00,2013-02-08 04:05:00,
2013-02-07 20:06:00,42.4,40.0,17.72,ENE,60,0.0,0.0,91,0.04,,---,0.47,VWS V14.00,2013-02-08 04:06:00,
2013-02-07 20:07:00,42.4,40.0,17.72,ENE,64,0.0,0.0,91,0.04,,---,0.47,VWS V14.00,2013-02-08 04:07:00,
2013-02-07 20:09:00,42.4,40.0,17.72,ENE,64,0.0,0.0,91,0.04,,---,0.47,VWS V14.00,2013-02-08 04:09:00,
2013-02-07 20:10:00,42.4,40.0,17.72,ENE,64,0.0,0.0,91,0.04,,---,0.47,VWS V14.00,2013-02-08 04:10:00,
2013-02-07 20:11:00,42.4,40.0,17.72,ENE,64,0.0,0.0,91,0.04,,---,0.47,VWS V14.00,2013-02-08 04:11:00,
2013-02-07 20:12:00,42.4,40.0,17.72,ENE,59,2.2,2.2,91,0.00,,---,0.47,VWS V14.00,2013-02-08 04:12:00,
2013-02-07 20:14:00,42.4,40.3,17.72,ENE,75,0.0,0.0,92,0.00,,---,0.47,VWS V14.00,2013-02-08 04:14:00,
2013-02-07 20:15:00,42.4,40.3,17.72,ENE,75,0.0,0.0,92,0.00,,---,0.47,VWS V14.00,2013-02-08 04:15:00,
2013-02-07 20:16:00,42.4,40.3,17.72,ENE,76,0.0,0.0,92,0.00,,---,0.47,VWS V14.00,2013-02-08 04:16:00,
2013-02-07 20:17:00,42.4,40.3,17.72,ENE,77,0.0,0.0,92,0.00,,---,0.47,VWS V14.00,2013-02-08 04:17:00,
2013-02-07 20:19:00,42.4,40.3,17.72,ENE,77,0.0,0.0,92,0.00,,---,0.47,VWS V14.00,2013-02-08 04:19:00,
2013-02-07 20:20:00,42.6,40.5,17.72,ENE,77,0.0,0.0,92,0.00,,---,0.47,VWS V14.00,2013-02-08 04:20:00,
2013-02-07 20:21:00,42.6,40.5,17.72,ENE,77,0.0,0.0,92,0.00,,---,0.47,VWS V14.00,2013-02-08 04:21:00,
2013-02-07 20:22:00,42.6,40.5,17.72,ENE,77,0.0,0.0,92,0.00,,---,0.47,VWS V14.00,2013-02-08 04:22:00,
2013-02-07 20:24:00,42.6,40.5,17.72,East,89,0.0,0.0,92,0.00,,---,0.47,VWS V14.00,2013-02-08 04:24:00,
2013-02-07 20:25:00,42.6,40.5,17.72,East,88,0.0,0.0,92,0.00,,---,0.47,VWS V14.00,2013-02-08 04:25:00,
2013-02-07 20:26:00,42.6,40.5,17.72,East,88,0.0,0.0,92,0.00,,---,0.47,VWS V14.00,2013-02-08 04:26:00,
2013-02-07 20:27:00,42.6,40.5,17.72,East,83,0.0,0.0,92,0.00,,---,0.47,VWS V14.00,2013-02-08 04:27:00,
2013-02-07 20:29:00,42.6,40.5,17.72,NE,50,0.0,0.0,92,0.00,,---,0.47,VWS V14.00,2013-02-08 04:29:00,
2013-02-07 20:30:00,42.6,40.5,17.72,NE,51,0.0,0.0,92,0.00,,---,0.47,VWS V14.00,2013-02-08 04:30:00,
2013-02-07 20:31:00,42.4,40.3,17.72,NE,51,0.0,0.0,92,0.00,,---,0.47,VWS V14.00,2013-02-08 04:31:00,
2013-02-07 20:32:00,42.4,40.3,17.72,NE,51,0.0,0.0,92,0.00,,---,0.47,VWS V14.00,2013-02-08 04:32:00,
2013-02-07 20:34:00,42.3,40.1,17.72,NE,51,0.0,0.0,92,0.00,,---,0.47,VWS V14.00,2013-02-08 04:34:00,
2013-02-07 20:35:00,42.3,40.1,17.72,NE,51,0.0,0.0,92,0.00,,---,0.47,VWS V14.00,2013-02-08 04:35:00,
2013-02-07 20:36:00,42.3,40.1,17.72,NE,51,0.0,0.0,92,0.00,,---,0.47,VWS V14.00,2013-02-08 04:36:00,
2013-02-07 20:37:00,42.3,40.1,17.72,NE,51,0.0,0.0,92,0.00,,---,0.47,VWS V14.00,2013-02-08 04:37:00,
2013-02-07 20:39:00,42.3,40.1,17.72,NE,51,0.0,0.0,92,0.00,,---,0.47,VWS V14.00,2013-02-08 04:39:00,
2013-02-07 20:40:00,42.3,40.1,17.72,NE,51,0.0,0.0,92,0.00,,---,0.47,VWS V14.00,2013-02-08 04:40:00,
2013-02-07 20:41:00,42.3,40.1,17.72,NE,51,0.0,0.0,92,0.00,,---,0.47,VWS V14.00,2013-02-08 04:41:00,
2013-02-07 20:42:00,42.4,40.3,17.72,NE,51,0.0,0.0,92,0.00,,---,0.47,VWS V14.00,2013-02-08 04:42:00,
2013-02-07 20:44:00,42.4,40.6,17.72,NE,51,0.0,0.0,93,0.00,,---,0.47,VWS V14.00,2013-02-08 04:44:00,
2013-02-07 20:46:00,42.6,40.7,17.72,NE,51,0.0,0.0,93,0.00,,---,0.47,VWS V14.00,2013-02-08 04:46:00,
2013-02-07 20:48:00,42.8,40.9,17.72,ENE,75,0.0,0.0,93,0.00,,---,0.47,VWS V14.00,2013-02-08 04:48:00,
2013-02-07 20:49:00,42.6,40.7,17.72,ENE,59,0.0,0.0,93,0.00,,---,0.47,VWS V14.00,2013-02-08 04:49:00,
2013-02-07 20:51:00,42.6,40.7,17.72,NE,52,0.0,2.2,93,0.00,,---,0.47,VWS V14.00,2013-02-08 04:51:00,
2013-02-07 20:53:00,42.6,40.7,17.72,ENE,57,0.0,0.0,93,0.00,,---,0.47,VWS V14.00,2013-02-08 04:53:00,
2013-02-07 20:54:00,42.4,40.6,17.72,ENE,57,0.0,0.0,93,0.00,,---,0.47,VWS V14.00,2013-02-08 04:54:00,
2013-02-07 20:56:00,42.4,40.6,17.72,ENE,57,0.0,0.0,93,0.00,,---,0.47,VWS V14.00,2013-02-08 04:56:00,
2013-02-07 20:57:00,42.4,40.6,17.72,ENE,57,0.0,0.0,93,0.00,,---,0.47,VWS V14.00,2013-02-08 04:57:00,
2013-02-07 20:59:00,42.6,40.7,17.72,East,98,0.0,0.0,93,0.00,,---,0.47,VWS V14.00,2013-02-08 04:59:00,
2013-02-07 21:00:00,42.6,40.7,17.72,East,98,0.0,0.0,93,0.00,,---,0.47,VWS V14.00,2013-02-08 05:00:00,
2013-02-07 21:05:00,42.6,40.7,17.72,East,89,2.2,2.2,93,0.00,,---,0.47,VWS V14.00,2013-02-08 05:05:00,
2013-02-07 21:10:00,42.4,40.6,17.72,ENE,74,0.0,0.0,93,0.00,,---,0.47,VWS V14.00,2013-02-08 05:10:00,
2013-02-07 21:15:00,42.4,40.6,17.72,ESE,102,0.0,0.0,93,0.00,,---,0.47,VWS V14.00,2013-02-08 05:15:00,
2013-02-07 21:16:00,42.4,40.6,17.72,ESE,102,0.0,0.0,93,0.00,,---,0.47,VWS V14.00,2013-02-08 05:16:00,
2013-02-07 21:20:00,42.4,40.6,17.72,ESE,102,0.0,0.0,93,0.00,,---,0.47,VWS V14.00,2013-02-08 05:20:00,
2013-02-07 21:21:00,42.4,40.6,17.72,ESE,102,0.0,0.0,93,0.00,,---,0.47,VWS V14.00,2013-02-08 05:21:00,
2013-02-07 21:25:00,42.3,40.4,17.72,East,98,0.0,0.0,93,0.00,,---,0.47,VWS V14.00,2013-02-08 05:25:00,
2013-02-07 21:26:00,42.3,40.4,17.72,East,98,0.0,0.0,93,0.00,,---,0.47,VWS V14.00,2013-02-08 05:26:00,
2013-02-07 21:30:00,42.3,40.4,17.72,ESE,110,0.0,0.0,93,0.00,,---,0.47,VWS V14.00,2013-02-08 05:30:00,
2013-02-07 21:31:00,42.3,40.4,17.72,ESE,110,0.0,0.0,93,0.00,,---,0.47,VWS V14.00,2013-02-08 05:31:00,
2013-02-07 21:35:00,42.3,40.4,17.72,East,94,0.0,0.0,93,0.00,,---,0.47,VWS V14.00,2013-02-08 05:35:00,
2013-02-07 21:36:00,42.3,40.4,17.72,East,94,0.0,0.0,93,0.00,,---,0.47,VWS V14.00,2013-02-08 05:36:00,
2013-02-07 21:40:00,42.3,40.4,17.72,East,94,0.0,0.0,93,0.00,,---,0.47,VWS V14.00,2013-02-08 05:40:00,
2013-02-07 21:41:00,42.3,40.4,17.72,East,94,0.0,0.0,93,0.00,,---,0.47,VWS V14.00,2013-02-08 05:41:00,
2013-02-07 21:45:00,42.4,40.6,17.72,East,94,0.0,0.0,93,0.00,,---,0.47,VWS V14.00,2013-02-08 05:45:00,
2013-02-07 21:46:00,42.4,40.6,17.72,East,94,0.0,0.0,93,0.00,,---,0.47,VWS V14.00,2013-02-08 05:46:00,
2013-02-07 21:50:00,42.4,40.8,17.72,East,94,0.0,0.0,94,0.00,,---,0.47,VWS V14.00,2013-02-08 05:50:00,
2013-02-07 21:51:00,42.4,40.8,17.72,East,94,0.0,0.0,94,0.00,,---,0.47,VWS V14.00,2013-02-08 05:51:00,
2013-02-07 21:55:00,42.4,40.8,17.72,East,94,0.0,0.0,94,0.00,,---,0.47,VWS V14.00,2013-02-08 05:55:00,
2013-02-07 21:56:00,42.4,40.8,17.72,East,94,0.0,0.0,94,0.00,,---,0.47,VWS V14.00,2013-02-08 05:56:00,
2013-02-07 22:00:00,42.4,40.8,17.72,East,91,0.0,0.0,94,0.00,,---,0.47,VWS V14.00,2013-02-08 06:00:00,
2013-02-07 22:01:00,42.4,40.8,17.72,East,91,0.0,0.0,94,0.00,,---,0.47,VWS V14.00,2013-02-08 06:01:00,
2013-02-07 22:05:00,42.3,40.7,17.72,ESE,105,0.0,0.0,94,0.00,,---,0.47,VWS V14.00,2013-02-08 06:05:00,
2013-02-07 22:06:00,42.3,40.7,17.72,ESE,105,0.0,0.0,94,0.00,,---,0.47,VWS V14.00,2013-02-08 06:06:00,
2013-02-07 22:10:00,42.4,40.8,17.72,ESE,105,0.0,0.0,94,0.00,,---,0.47,VWS V14.00,2013-02-08 06:10:00,
2013-02-07 22:11:00,42.4,40.8,17.72,ESE,105,0.0,0.0,94,0.00,,---,0.47,VWS V14.00,2013-02-08 06:11:00,
2013-02-07 22:15:00,42.3,40.7,17.72,ESE,105,0.0,0.0,94,0.00,,---,0.47,VWS V14.00,2013-02-08 06:15:00,
2013-02-07 22:16:00,42.3,40.7,17.72,ESE,105,0.0,0.0,94,0.00,,---,0.47,VWS V14.00,2013-02-08 06:16:00,
2013-02-07 22:20:00,42.1,40.5,17.72,ESE,105,0.0,0.0,94,0.00,,---,0.47,VWS V14.00,2013-02-08 06:20:00,
2013-02-07 22:21:00,42.1,40.2,17.72,ESE,105,0.0,0.0,93,0.00,,---,0.47,VWS V14.00,2013-02-08 06:21:00,
2013-02-07 22:25:00,41.7,39.8,17.72,ESE,114,0.0,0.0,93,0.00,,---,0.47,VWS V14.00,2013-02-08 06:25:00,
2013-02-07 22:26:00,41.7,39.8,17.72,ESE,114,0.0,0.0,93,0.00,,---,0.47,VWS V14.00,2013-02-08 06:26:00,
2013-02-07 22:30:00,41.5,39.7,17.72,ESE,114,0.0,0.0,93,0.00,,---,0.47,VWS V14.00,2013-02-08 06:30:00,
2013-02-07 22:31:00,41.5,39.7,17.72,ESE,114,0.0,0.0,93,0.00,,---,0.47,VWS V14.00,2013-02-08 06:31:00,
2013-02-07 22:35:00,41.4,39.5,17.72,SE,127,0.0,0.0,93,0.00,,---,0.47,VWS V14.00,2013-02-08 06:35:00,
2013-02-07 22:36:00,41.4,39.5,17.72,SE,133,0.0,0.0,93,0.00,,---,0.47,VWS V14.00,2013-02-08 06:36:00,
2013-02-07 22:40:00,41.2,39.3,17.72,SE,133,0.0,0.0,93,0.00,,---,0.47,VWS V14.00,2013-02-08 06:40:00,
2013-02-07 22:41:00,41.2,39.3,17.72,SE,133,0.0,0.0,93,0.00,,---,0.47,VWS V14.00,2013-02-08 06:41:00,
2013-02-07 22:45:00,40.8,39.0,17.72,SE,133,0.0,0.0,93,0.00,,---,0.47,VWS V14.00,2013-02-08 06:45:00,
2013-02-07 22:46:00,40.8,39.0,17.72,SE,133,0.0,0.0,93,0.00,,---,0.47,VWS V14.00,2013-02-08 06:46:00,
2013-02-07 22:50:00,40.8,39.0,17.72,SE,133,0.0,0.0,93,0.00,,---,0.47,VWS V14.00,2013-02-08 06:50:00,
2013-02-07 22:51:00,40.6,38.8,17.72,SE,133,0.0,0.0,93,0.00,,---,0.47,VWS V14.00,2013-02-08 06:51:00,
2013-02-07 22:55:00,40.6,39.0,17.72,SE,133,0.0,0.0,94,0.00,,---,0.47,VWS V14.00,2013-02-08 06:55:00,
2013-02-07 22:56:00,40.8,39.2,17.72,SE,133,0.0,0.0,94,0.00,,---,0.47,VWS V14.00,2013-02-08 06:56:00,
2013-02-07 23:00:00,41.0,39.4,17.72,SE,133,0.0,0.0,94,0.00,,---,0.47,VWS V14.00,2013-02-08 07:00:00,
2013-02-07 23:01:00,41.0,39.4,17.72,SE,133,0.0,0.0,94,0.00,,---,0.47,VWS V14.00,2013-02-08 07:01:00,
2013-02-07 23:05:00,41.2,39.6,17.72,SE,133,0.0,0.0,94,0.00,,---,0.47,VWS V14.00,2013-02-08 07:05:00,
2013-02-07 23:06:00,41.4,39.8,17.72,SE,133,0.0,0.0,94,0.00,,---,0.47,VWS V14.00,2013-02-08 07:06:00,
2013-02-07 23:10:00,41.5,40.0,17.72,SE,133,0.0,0.0,94,0.00,,---,0.47,VWS V14.00,2013-02-08 07:10:00,
2013-02-07 23:11:00,41.5,40.0,17.72,SE,133,0.0,0.0,94,0.00,,---,0.47,VWS V14.00,2013-02-08 07:11:00,
2013-02-07 23:15:00,41.5,40.2,17.72,SE,133,0.0,0.0,95,0.00,,---,0.47,VWS V14.00,2013-02-08 07:15:00,
2013-02-07 23:16:00,41.5,40.2,17.72,SE,133,0.0,0.0,95,0.00,,---,0.47,VWS V14.00,2013-02-08 07:16:00,
2013-02-07 23:20:00,41.7,40.4,17.72,SE,133,0.0,0.0,95,0.00,,---,0.47,VWS V14.00,2013-02-08 07:20:00,
2013-02-07 23:21:00,41.7,40.4,17.72,SE,133,0.0,0.0,95,0.00,,---,0.47,VWS V14.00,2013-02-08 07:21:00,
2013-02-07 23:25:00,41.7,40.4,17.72,SE,133,0.0,0.0,95,0.00,,---,0.47,VWS V14.00,2013-02-08 07:25:00,
2013-02-07 23:26:00,41.7,40.4,17.72,SE,133,0.0,0.0,95,0.00,,---,0.47,VWS V14.00,2013-02-08 07:26:00,
2013-02-07 23:30:00,41.5,40.2,17.72,SE,133,0.0,0.0,95,0.00,,---,0.47,VWS V14.00,2013-02-08 07:30:00,
2013-02-07 23:31:00,41.5,40.2,17.72,SE,133,0.0,0.0,95,0.00,,---,0.47,VWS V14.00,2013-02-08 07:31:00,
2013-02-07 23:35:00,41.4,39.8,17.72,SE,133,0.0,0.0,94,0.00,,---,0.47,VWS V14.00,2013-02-08 07:35:00,
2013-02-07 23:36:00,41.4,39.8,17.72,SE,133,0.0,0.0,94,0.00,,---,0.47,VWS V14.00,2013-02-08 07:36:00,
2013-02-07 23:40:00,41.5,40.0,17.72,SE,133,0.0,0.0,94,0.00,,---,0.47,VWS V14.00,2013-02-08 07:40:00,
2013-02-07 23:41:00,41.5,40.0,17.72,SE,133,0.0,0.0,94,0.00,,---,0.47,VWS V14.00,2013-02-08 07:41:00,
2013-02-07 23:45:00,41.5,40.2,17.72,SE,133,0.0,0.0,95,0.00,,---,0.47,VWS V14.00,2013-02-08 07:45:00,
2013-02-07 23:46:00,41.5,40.2,17.72,SE,133,0.0,0.0,95,0.00,,---,0.47,VWS V14.00,2013-02-08 07:46:00,
2013-02-07 23:50:00,41.5,40.2,17.72,SE,133,0.0,0.0,95,0.00,,---,0.47,VWS V14.00,2013-02-08 07:50:00,
2013-02-07 23:51:00,41.5,40.2,17.72,SE,133,0.0,0.0,95,0.00,,---,0.47,VWS V14.00,2013-02-08 07:51:00,
2013-02-07 23:55:00,41.4,39.8,17.72,SE,133,0.0,0.0,94,0.00,,---,0.47,VWS V14.00,2013-02-08 07:55:00,
2013-02-07 23:56:00,41.4,39.8,17.72,SE,133,0.0,0.0,94,0.00,,---,0.47,VWS V14.00,2013-02-08 07:56:00,